DHK864 OBBI-EGNX
Flight info
| Callsign | DHK864 |
|---|---|
| Flight time | 6h 35m |
| Altitude | 32000 |
| Route | BHR345/30R BHR A453 RAMSI M444 DAVUS L602 GADSI M860 SEPTU DCT VUSEB M860 NINVA UM860 ODALI UL852 EKSUK/N0483F340 UL852 NEGEM DCT MATEL T746 ARGES DCT DEGET DCT DEXIT DCT INBED DCT BOMBI DCT DENUT L610 HEMEL |
| Aircraft | B77L/H-SDE1E2E3FGHIJ2J3J4J5M1RWXY/LB1D1 |
Departure
| Time | 2026-05-08 14:32 |
|---|---|
| Airport | Bahrain International Airport (OBBI) |
Arrival
| Time | 2026-05-08 21:07 |
|---|---|
| Airport | East Midlands Airport (EGNX) |
| Time | Latitude | Longitude | Altitude | Speed | Heading |
|---|---|---|---|---|---|
| 2026-05-08 14:10 | 26.27335 | 50.62162 | 21 ft | 0 kts | 210° |
| 2026-05-08 14:19 | 26.27347 | 50.62170 | 25 ft | 4 kts | 210° |
| 2026-05-08 14:19 | 26.27366 | 50.62182 | 26 ft | 4 kts | 199° |
| 2026-05-08 14:19 | 26.27388 | 50.62187 | 26 ft | 4 kts | 167° |
| 2026-05-08 14:19 | 26.27409 | 50.62175 | 25 ft | 4 kts | 134° |
| 2026-05-08 14:20 | 26.27425 | 50.62158 | 26 ft | 4 kts | 166° |
| 2026-05-08 14:20 | 26.27434 | 50.62159 | 26 ft | 4 kts | 205° |
| 2026-05-08 14:20 | 26.27453 | 50.62165 | 25 ft | 4 kts | 159° |
| 2026-05-08 14:20 | 26.27470 | 50.62150 | 25 ft | 4 kts | 123° |
| 2026-05-08 14:21 | 26.27483 | 50.62126 | 25 ft | 4 kts | 121° |
| 2026-05-08 14:21 | 26.27497 | 50.62100 | 25 ft | 4 kts | 121° |
| 2026-05-08 14:21 | 26.27503 | 50.62089 | 26 ft | 0 kts | 121° |
| 2026-05-08 14:25 | 26.27490 | 50.62114 | 25 ft | 5 kts | 121° |
| 2026-05-08 14:25 | 26.27486 | 50.62152 | 21 ft | 6 kts | 67° |
| 2026-05-08 14:25 | 26.27510 | 50.62187 | 21 ft | 6 kts | 46° |
| 2026-05-08 14:25 | 26.27518 | 50.62262 | 23 ft | 13 kts | 105° |
| 2026-05-08 14:26 | 26.27475 | 50.62346 | 23 ft | 13 kts | 122° |
| 2026-05-08 14:26 | 26.27426 | 50.62432 | 24 ft | 17 kts | 122° |
| 2026-05-08 14:26 | 26.27341 | 50.62578 | 24 ft | 23 kts | 124° |
| 2026-05-08 14:26 | 26.27254 | 50.62730 | 23 ft | 23 kts | 122° |
| 2026-05-08 14:27 | 26.27166 | 50.62882 | 24 ft | 23 kts | 123° |
| 2026-05-08 14:27 | 26.27073 | 50.63030 | 24 ft | 23 kts | 123° |
| 2026-05-08 14:27 | 26.26985 | 50.63182 | 20 ft | 23 kts | 123° |
| 2026-05-08 14:27 | 26.26898 | 50.63331 | 20 ft | 23 kts | 123° |
| 2026-05-08 14:28 | 26.26808 | 50.63484 | 19 ft | 23 kts | 123° |
| 2026-05-08 14:28 | 26.26720 | 50.63633 | 22 ft | 23 kts | 123° |
| 2026-05-08 14:28 | 26.26631 | 50.63783 | 24 ft | 23 kts | 123° |
| 2026-05-08 14:28 | 26.26545 | 50.63936 | 24 ft | 23 kts | 121° |
| 2026-05-08 14:29 | 26.26460 | 50.64090 | 20 ft | 23 kts | 122° |
| 2026-05-08 14:29 | 26.26374 | 50.64241 | 19 ft | 23 kts | 123° |
| 2026-05-08 14:29 | 26.26284 | 50.64391 | 19 ft | 23 kts | 124° |
| 2026-05-08 14:29 | 26.26194 | 50.64541 | 19 ft | 23 kts | 123° |
| 2026-05-08 14:30 | 26.26107 | 50.64691 | 19 ft | 23 kts | 123° |
| 2026-05-08 14:30 | 26.26025 | 50.64848 | 20 ft | 23 kts | 111° |
| 2026-05-08 14:30 | 26.26091 | 50.64989 | 23 ft | 23 kts | 16° |
| 2026-05-08 14:30 | 26.26189 | 50.64907 | 23 ft | 24 kts | 304° |
| 2026-05-08 14:31 | 26.26405 | 50.64534 | 19 ft | 93 kts | 303° |
| 2026-05-08 14:31 | 26.26881 | 50.63712 | 20 ft | 156 kts | 303° |
| 2026-05-08 14:31 | 26.27536 | 50.62586 | 302 ft | 176 kts | 305° |
| 2026-05-08 14:32 | 26.28923 | 50.60169 | 1362 ft | 193 kts | 311° |
| 2026-05-08 14:32 | 26.29900 | 50.59157 | 1941 ft | 193 kts | 330° |
| 2026-05-08 14:32 | 26.31239 | 50.58709 | 2147 ft | 209 kts | 349° |
| 2026-05-08 14:32 | 26.32705 | 50.58449 | 2395 ft | 227 kts | 348° |
| 2026-05-08 14:33 | 26.34314 | 50.58098 | 2766 ft | 237 kts | 347° |
| 2026-05-08 14:33 | 26.35951 | 50.57730 | 3295 ft | 243 kts | 347° |
| 2026-05-08 14:33 | 26.37608 | 50.57371 | 3811 ft | 248 kts | 346° |
| 2026-05-08 14:33 | 26.39332 | 50.57011 | 4002 ft | 254 kts | 347° |
| 2026-05-08 14:34 | 26.41077 | 50.56643 | 3993 ft | 255 kts | 347° |
| 2026-05-08 14:34 | 26.42818 | 50.56272 | 3994 ft | 253 kts | 347° |
| 2026-05-08 14:34 | 26.44545 | 50.55905 | 4000 ft | 251 kts | 347° |
| 2026-05-08 14:34 | 26.46259 | 50.55544 | 4007 ft | 249 kts | 348° |
| 2026-05-08 14:35 | 26.47978 | 50.55600 | 4014 ft | 251 kts | 6° |
| 2026-05-08 14:35 | 26.49735 | 50.55715 | 4008 ft | 255 kts | 351° |
| 2026-05-08 14:35 | 26.51466 | 50.55382 | 4023 ft | 255 kts | 344° |
| 2026-05-08 14:35 | 26.53178 | 50.54865 | 4013 ft | 253 kts | 341° |
| 2026-05-08 14:36 | 26.54870 | 50.54296 | 4001 ft | 252 kts | 340° |
| 2026-05-08 14:36 | 26.56533 | 50.53696 | 3992 ft | 250 kts | 339° |
| 2026-05-08 14:36 | 26.58159 | 50.53088 | 4002 ft | 248 kts | 339° |
| 2026-05-08 14:36 | 26.59793 | 50.52471 | 4008 ft | 246 kts | 339° |
| 2026-05-08 14:37 | 26.61420 | 50.51857 | 4013 ft | 246 kts | 339° |
| 2026-05-08 14:37 | 26.63043 | 50.51243 | 4018 ft | 246 kts | 339° |
| 2026-05-08 14:37 | 26.64674 | 50.50627 | 4025 ft | 247 kts | 339° |
| 2026-05-08 14:37 | 26.66284 | 50.50018 | 4027 ft | 248 kts | 339° |
| 2026-05-08 14:38 | 26.67929 | 50.49397 | 4022 ft | 249 kts | 339° |
| 2026-05-08 14:38 | 26.69577 | 50.48770 | 4023 ft | 249 kts | 338° |
| 2026-05-08 14:38 | 26.71038 | 50.47794 | 4012 ft | 243 kts | 317° |
| 2026-05-08 14:38 | 26.71852 | 50.46929 | 4029 ft | 244 kts | 317° |
| 2026-05-08 14:39 | 26.73094 | 50.45615 | 4262 ft | 245 kts | 317° |
| 2026-05-08 14:39 | 26.74763 | 50.43859 | 5021 ft | 253 kts | 316° |
| 2026-05-08 14:39 | 26.75629 | 50.42946 | 5415 ft | 255 kts | 316° |
| 2026-05-08 14:39 | 26.77361 | 50.41117 | 6145 ft | 264 kts | 316° |
| 2026-05-08 14:40 | 26.78693 | 50.39707 | 6802 ft | 263 kts | 316° |
| 2026-05-08 14:40 | 26.80031 | 50.38291 | 7421 ft | 265 kts | 316° |
| 2026-05-08 14:40 | 26.80938 | 50.37333 | 7857 ft | 266 kts | 316° |
| 2026-05-08 14:40 | 26.82286 | 50.35906 | 8345 ft | 273 kts | 316° |
| 2026-05-08 14:41 | 26.83682 | 50.34427 | 8915 ft | 278 kts | 316° |
| 2026-05-08 14:41 | 26.85098 | 50.32926 | 9460 ft | 282 kts | 316° |
| 2026-05-08 14:41 | 26.86533 | 50.31405 | 9992 ft | 288 kts | 316° |
| 2026-05-08 14:41 | 26.88009 | 50.29842 | 10373 ft | 299 kts | 316° |
| 2026-05-08 14:42 | 26.89575 | 50.28179 | 10490 ft | 319 kts | 316° |
| 2026-05-08 14:42 | 26.91237 | 50.26415 | 10668 ft | 339 kts | 316° |
| 2026-05-08 14:42 | 26.93002 | 50.24540 | 10799 ft | 360 kts | 316° |
| 2026-05-08 14:42 | 26.94858 | 50.22569 | 11130 ft | 373 kts | 315° |
| 2026-05-08 14:43 | 26.96763 | 50.20545 | 11639 ft | 381 kts | 315° |
| 2026-05-08 14:43 | 26.98708 | 50.18478 | 12173 ft | 389 kts | 315° |
| 2026-05-08 14:43 | 27.00662 | 50.16399 | 12722 ft | 396 kts | 315° |
| 2026-05-08 14:43 | 27.02676 | 50.14257 | 13321 ft | 402 kts | 314° |
| 2026-05-08 14:44 | 27.04725 | 50.12091 | 13899 ft | 407 kts | 316° |
| 2026-05-08 14:44 | 27.06911 | 50.10043 | 14566 ft | 408 kts | 319° |
| 2026-05-08 14:44 | 27.09163 | 50.08082 | 15125 ft | 413 kts | 320° |
| 2026-05-08 14:44 | 27.11462 | 50.06109 | 15686 ft | 417 kts | 320° |
| 2026-05-08 14:45 | 27.13771 | 50.04120 | 16321 ft | 419 kts | 320° |
| 2026-05-08 14:45 | 27.16081 | 50.02115 | 16909 ft | 421 kts | 319° |
| 2026-05-08 14:45 | 27.18411 | 50.00077 | 17022 ft | 426 kts | 319° |
| 2026-05-08 14:45 | 27.20715 | 49.98054 | 17029 ft | 424 kts | 319° |
| 2026-05-08 14:46 | 27.23037 | 49.96012 | 17027 ft | 422 kts | 319° |
| 2026-05-08 14:46 | 27.25344 | 49.93981 | 17029 ft | 422 kts | 319° |
| 2026-05-08 14:46 | 27.27658 | 49.91944 | 17035 ft | 422 kts | 319° |
| 2026-05-08 14:46 | 27.29965 | 49.89913 | 17037 ft | 422 kts | 319° |
| 2026-05-08 14:47 | 27.32276 | 49.87879 | 17046 ft | 422 kts | 319° |
| 2026-05-08 14:47 | 27.34590 | 49.85840 | 17102 ft | 424 kts | 319° |
| 2026-05-08 14:47 | 27.36922 | 49.83785 | 17654 ft | 427 kts | 318° |
| 2026-05-08 14:47 | 27.39261 | 49.81721 | 18276 ft | 428 kts | 318° |
| 2026-05-08 14:48 | 27.41612 | 49.79647 | 18791 ft | 431 kts | 318° |
| 2026-05-08 14:48 | 27.43982 | 49.77554 | 19228 ft | 435 kts | 317° |
| 2026-05-08 14:48 | 27.46374 | 49.75440 | 19697 ft | 438 kts | 317° |
| 2026-05-08 14:48 | 27.48781 | 49.73311 | 20170 ft | 441 kts | 317° |
| 2026-05-08 14:49 | 27.51206 | 49.71166 | 20644 ft | 444 kts | 317° |
| 2026-05-08 14:49 | 27.53621 | 49.69029 | 21113 ft | 447 kts | 317° |
| 2026-05-08 14:49 | 27.56075 | 49.66855 | 21569 ft | 451 kts | 317° |
| 2026-05-08 14:49 | 27.58547 | 49.64665 | 22018 ft | 454 kts | 317° |
| 2026-05-08 14:50 | 27.61040 | 49.62455 | 22478 ft | 457 kts | 317° |
| 2026-05-08 14:50 | 27.63548 | 49.60230 | 22914 ft | 460 kts | 316° |
| 2026-05-08 14:50 | 27.66071 | 49.57991 | 23352 ft | 463 kts | 316° |
| 2026-05-08 14:50 | 27.68608 | 49.55738 | 23720 ft | 466 kts | 316° |
| 2026-05-08 14:51 | 27.71163 | 49.53466 | 24092 ft | 468 kts | 316° |
| 2026-05-08 14:51 | 27.73727 | 49.51183 | 24487 ft | 470 kts | 316° |
| 2026-05-08 14:51 | 27.76300 | 49.48890 | 24863 ft | 472 kts | 316° |
| 2026-05-08 14:51 | 27.78855 | 49.46610 | 25230 ft | 474 kts | 316° |
| 2026-05-08 14:52 | 27.81449 | 49.44295 | 25602 ft | 477 kts | 316° |
| 2026-05-08 14:52 | 27.86686 | 49.39618 | 26326 ft | 481 kts | 316° |
| 2026-05-08 14:52 | 27.89319 | 49.37264 | 26678 ft | 484 kts | 316° |
| 2026-05-08 14:53 | 27.91963 | 49.34901 | 27012 ft | 487 kts | 317° |
| 2026-05-08 14:53 | 27.94753 | 49.32674 | 27312 ft | 494 kts | 323° |
| 2026-05-08 14:53 | 27.97755 | 49.30724 | 27641 ft | 501 kts | 328° |
| 2026-05-08 14:53 | 28.00958 | 49.29102 | 27963 ft | 506 kts | 333° |
| 2026-05-08 14:54 | 28.04228 | 49.27585 | 28303 ft | 509 kts | 333° |
| 2026-05-08 14:54 | 28.07520 | 49.26072 | 28606 ft | 512 kts | 333° |
| 2026-05-08 14:54 | 28.10822 | 49.24536 | 28895 ft | 514 kts | 333° |
| 2026-05-08 14:54 | 28.14133 | 49.22972 | 29175 ft | 516 kts | 332° |
| 2026-05-08 14:55 | 28.17452 | 49.21385 | 29469 ft | 518 kts | 332° |
| 2026-05-08 14:55 | 28.20775 | 49.19791 | 29850 ft | 518 kts | 332° |
| 2026-05-08 14:55 | 28.24098 | 49.18198 | 30221 ft | 518 kts | 332° |
| 2026-05-08 14:55 | 28.27410 | 49.16595 | 30547 ft | 517 kts | 331° |
| 2026-05-08 14:56 | 28.30715 | 49.14969 | 30811 ft | 519 kts | 330° |
| 2026-05-08 14:56 | 28.33986 | 49.13357 | 31099 ft | 519 kts | 330° |
| 2026-05-08 14:56 | 28.37302 | 49.11720 | 31378 ft | 519 kts | 329° |
| 2026-05-08 14:56 | 28.40519 | 49.09905 | 31666 ft | 514 kts | 323° |
| 2026-05-08 14:57 | 28.43529 | 49.07767 | 31968 ft | 507 kts | 318° |
| 2026-05-08 14:57 | 28.46445 | 49.05507 | 32281 ft | 506 kts | 317° |
| 2026-05-08 14:57 | 28.49343 | 49.03236 | 32598 ft | 505 kts | 317° |
| 2026-05-08 14:57 | 28.52237 | 49.00973 | 32921 ft | 505 kts | 317° |
| 2026-05-08 14:58 | 28.55134 | 48.98726 | 33218 ft | 504 kts | 317° |
| 2026-05-08 14:58 | 28.58040 | 48.96488 | 33516 ft | 504 kts | 317° |
| 2026-05-08 14:58 | 28.60940 | 48.94262 | 33790 ft | 503 kts | 316° |
| 2026-05-08 14:59 | 28.66783 | 48.89777 | 33877 ft | 506 kts | 316° |
| 2026-05-08 14:59 | 28.75484 | 48.83094 | 33880 ft | 498 kts | 316° |
| 2026-05-08 15:00 | 28.81212 | 48.78679 | 33883 ft | 496 kts | 316° |
| 2026-05-08 15:00 | 28.86931 | 48.74289 | 33887 ft | 495 kts | 316° |
| 2026-05-08 15:01 | 28.92604 | 48.69937 | 33886 ft | 494 kts | 316° |
| 2026-05-08 15:01 | 28.98318 | 48.65544 | 33893 ft | 494 kts | 316° |
| 2026-05-08 15:02 | 29.04037 | 48.61139 | 33894 ft | 495 kts | 316° |
| 2026-05-08 15:02 | 29.09716 | 48.56759 | 33887 ft | 496 kts | 316° |
| 2026-05-08 15:03 | 29.15458 | 48.52323 | 33889 ft | 497 kts | 316° |
| 2026-05-08 15:03 | 29.21201 | 48.47882 | 33906 ft | 499 kts | 316° |
| 2026-05-08 15:04 | 29.26968 | 48.43416 | 33893 ft | 500 kts | 316° |
| 2026-05-08 15:04 | 29.32715 | 48.38959 | 33902 ft | 502 kts | 315° |
| 2026-05-08 15:05 | 29.38507 | 48.34461 | 33902 ft | 503 kts | 315° |
| 2026-05-08 15:05 | 29.44335 | 48.29980 | 33912 ft | 508 kts | 318° |
| 2026-05-08 15:06 | 29.50489 | 48.25879 | 33906 ft | 511 kts | 320° |
| 2026-05-08 15:06 | 29.56688 | 48.21876 | 33896 ft | 510 kts | 320° |
| 2026-05-08 15:07 | 29.62818 | 48.17878 | 33891 ft | 508 kts | 319° |
| 2026-05-08 15:07 | 29.68935 | 48.13847 | 33895 ft | 506 kts | 319° |
| 2026-05-08 15:08 | 29.74008 | 48.10493 | 33902 ft | 504 kts | 319° |
| 2026-05-08 15:08 | 29.81108 | 48.05796 | 33888 ft | 501 kts | 319° |
| 2026-05-08 15:09 | 29.87147 | 48.01796 | 33889 ft | 500 kts | 319° |
| 2026-05-08 15:09 | 29.93139 | 47.97821 | 33902 ft | 499 kts | 319° |
| 2026-05-08 15:10 | 29.99111 | 47.93770 | 33896 ft | 493 kts | 315° |
| 2026-05-08 15:10 | 30.04359 | 47.88862 | 33904 ft | 478 kts | 305° |
| 2026-05-08 15:11 | 30.08757 | 47.83212 | 33911 ft | 473 kts | 300° |
| 2026-05-08 15:11 | 30.13042 | 47.77401 | 33913 ft | 478 kts | 300° |
| 2026-05-08 15:12 | 30.17395 | 47.71535 | 33915 ft | 483 kts | 301° |
| 2026-05-08 15:12 | 30.21783 | 47.65661 | 33909 ft | 488 kts | 301° |
| 2026-05-08 15:13 | 30.26242 | 47.59697 | 33917 ft | 491 kts | 301° |
| 2026-05-08 15:13 | 30.30716 | 47.53702 | 33917 ft | 492 kts | 301° |
| 2026-05-08 15:14 | 30.35186 | 47.47701 | 33918 ft | 491 kts | 301° |
| 2026-05-08 15:14 | 30.39615 | 47.41744 | 33910 ft | 489 kts | 300° |
| 2026-05-08 15:15 | 30.44053 | 47.35765 | 33916 ft | 487 kts | 300° |
| 2026-05-08 15:15 | 30.48455 | 47.29822 | 33915 ft | 485 kts | 300° |
| 2026-05-08 15:16 | 30.52839 | 47.23895 | 33918 ft | 483 kts | 300° |
| 2026-05-08 15:16 | 30.57360 | 47.18092 | 33925 ft | 490 kts | 306° |
| 2026-05-08 15:17 | 30.62633 | 47.13010 | 33929 ft | 497 kts | 311° |
| 2026-05-08 15:17 | 30.68081 | 47.08029 | 33935 ft | 498 kts | 311° |
| 2026-05-08 15:18 | 30.73508 | 47.03019 | 33924 ft | 498 kts | 311° |
| 2026-05-08 15:18 | 30.78920 | 46.97964 | 33928 ft | 498 kts | 311° |
| 2026-05-08 15:19 | 30.84316 | 46.92899 | 33937 ft | 499 kts | 311° |
| 2026-05-08 15:19 | 30.89685 | 46.87852 | 33942 ft | 499 kts | 311° |
| 2026-05-08 15:20 | 30.95093 | 46.82764 | 33945 ft | 500 kts | 311° |
| 2026-05-08 15:20 | 31.00513 | 46.77659 | 33939 ft | 500 kts | 311° |
| 2026-05-08 15:21 | 31.05928 | 46.72552 | 33945 ft | 501 kts | 311° |
| 2026-05-08 15:21 | 31.11343 | 46.67437 | 33948 ft | 501 kts | 311° |
| 2026-05-08 15:22 | 31.16753 | 46.62319 | 33953 ft | 501 kts | 311° |
| 2026-05-08 15:22 | 31.22125 | 46.57228 | 33954 ft | 500 kts | 311° |
| 2026-05-08 15:23 | 31.27525 | 46.52104 | 33954 ft | 499 kts | 311° |
| 2026-05-08 15:23 | 31.32920 | 46.46976 | 33954 ft | 498 kts | 310° |
| 2026-05-08 15:24 | 31.38300 | 46.41854 | 33961 ft | 497 kts | 310° |
| 2026-05-08 15:24 | 31.43655 | 46.36748 | 33966 ft | 496 kts | 310° |
| 2026-05-08 15:25 | 31.48974 | 46.31669 | 33978 ft | 495 kts | 310° |
| 2026-05-08 15:25 | 31.54309 | 46.26567 | 33975 ft | 495 kts | 310° |
| 2026-05-08 15:26 | 31.59634 | 46.21466 | 33983 ft | 494 kts | 309° |
| 2026-05-08 15:26 | 31.64962 | 46.16354 | 33992 ft | 494 kts | 309° |
| 2026-05-08 15:27 | 31.70289 | 46.11234 | 33999 ft | 495 kts | 309° |
| 2026-05-08 15:27 | 31.75622 | 46.06101 | 34006 ft | 495 kts | 309° |
| 2026-05-08 15:28 | 31.80901 | 46.00901 | 34001 ft | 495 kts | 308° |
| 2026-05-08 15:28 | 31.86156 | 45.95654 | 34002 ft | 496 kts | 308° |
| 2026-05-08 15:29 | 31.90546 | 45.91271 | 34000 ft | 497 kts | 308° |
| 2026-05-08 15:29 | 31.95820 | 45.86014 | 34001 ft | 497 kts | 308° |
| 2026-05-08 15:30 | 32.01101 | 45.80748 | 34003 ft | 497 kts | 309° |
| 2026-05-08 15:30 | 32.06354 | 45.75502 | 34003 ft | 497 kts | 309° |
| 2026-05-08 15:31 | 32.11626 | 45.70228 | 34001 ft | 495 kts | 310° |
| 2026-05-08 15:31 | 32.16870 | 45.64973 | 33998 ft | 494 kts | 310° |
| 2026-05-08 15:32 | 32.22102 | 45.59722 | 33995 ft | 492 kts | 310° |
| 2026-05-08 15:32 | 32.27307 | 45.54488 | 33996 ft | 490 kts | 310° |
| 2026-05-08 15:33 | 32.32457 | 45.49302 | 33997 ft | 489 kts | 311° |
| 2026-05-08 15:33 | 32.37655 | 45.44059 | 33999 ft | 487 kts | 311° |
| 2026-05-08 15:34 | 32.42775 | 45.38886 | 33997 ft | 486 kts | 311° |
| 2026-05-08 15:34 | 32.47910 | 45.33690 | 33992 ft | 485 kts | 312° |
| 2026-05-08 15:35 | 32.53042 | 45.28490 | 33986 ft | 485 kts | 312° |
| 2026-05-08 15:35 | 32.58443 | 45.23619 | 34016 ft | 491 kts | 319° |
| 2026-05-08 15:36 | 32.64157 | 45.19156 | 34001 ft | 491 kts | 320° |
| 2026-05-08 15:36 | 32.69868 | 45.14701 | 33997 ft | 491 kts | 320° |
| 2026-05-08 15:37 | 32.75549 | 45.10212 | 33997 ft | 490 kts | 320° |
| 2026-05-08 15:37 | 32.81176 | 45.05735 | 33999 ft | 489 kts | 320° |
| 2026-05-08 15:38 | 32.86825 | 45.01232 | 34000 ft | 489 kts | 320° |
| 2026-05-08 15:38 | 32.92470 | 44.96730 | 33999 ft | 488 kts | 321° |
| 2026-05-08 15:39 | 32.98102 | 44.92231 | 33999 ft | 487 kts | 321° |
| 2026-05-08 15:39 | 33.03720 | 44.87736 | 33999 ft | 486 kts | 321° |
| 2026-05-08 15:40 | 33.09289 | 44.83273 | 34000 ft | 484 kts | 321° |
| 2026-05-08 15:40 | 33.14880 | 44.78786 | 33995 ft | 483 kts | 321° |
| 2026-05-08 15:41 | 33.20607 | 44.74565 | 33992 ft | 487 kts | 329° |
| 2026-05-08 15:41 | 33.26965 | 44.71626 | 33999 ft | 494 kts | 341° |
| 2026-05-08 15:42 | 33.33634 | 44.69659 | 34003 ft | 494 kts | 342° |
| 2026-05-08 15:42 | 33.40323 | 44.67774 | 33995 ft | 493 kts | 342° |
| 2026-05-08 15:43 | 33.46992 | 44.65850 | 33995 ft | 492 kts | 342° |
| 2026-05-08 15:43 | 33.53647 | 44.63891 | 33986 ft | 492 kts | 342° |
| 2026-05-08 15:44 | 33.60245 | 44.61934 | 33977 ft | 491 kts | 342° |
| 2026-05-08 15:44 | 33.66875 | 44.59965 | 33981 ft | 490 kts | 342° |
| 2026-05-08 15:45 | 33.73491 | 44.57999 | 33989 ft | 489 kts | 342° |
| 2026-05-08 15:45 | 33.80108 | 44.56030 | 33972 ft | 488 kts | 342° |
| 2026-05-08 15:46 | 33.86699 | 44.54067 | 33976 ft | 488 kts | 342° |
| 2026-05-08 15:46 | 33.93302 | 44.52096 | 33977 ft | 488 kts | 342° |
| 2026-05-08 15:47 | 33.99851 | 44.50138 | 33978 ft | 488 kts | 341° |
| 2026-05-08 15:47 | 34.06449 | 44.48163 | 33980 ft | 488 kts | 341° |
| 2026-05-08 15:48 | 34.16351 | 44.45193 | 33982 ft | 488 kts | 341° |
| 2026-05-08 15:49 | 34.22944 | 44.43211 | 33982 ft | 489 kts | 341° |
| 2026-05-08 15:49 | 34.29509 | 44.41234 | 33981 ft | 489 kts | 341° |
| 2026-05-08 15:50 | 34.36125 | 44.39239 | 33984 ft | 489 kts | 341° |
| 2026-05-08 15:50 | 34.42731 | 44.37244 | 33982 ft | 489 kts | 341° |
| 2026-05-08 15:51 | 34.49294 | 44.35259 | 33983 ft | 488 kts | 341° |
| 2026-05-08 15:51 | 34.55903 | 44.33256 | 33986 ft | 488 kts | 341° |
| 2026-05-08 15:52 | 34.62495 | 44.31255 | 33986 ft | 488 kts | 341° |
| 2026-05-08 15:52 | 34.69078 | 44.29254 | 33997 ft | 488 kts | 341° |
| 2026-05-08 15:53 | 34.75674 | 44.27245 | 33992 ft | 487 kts | 341° |
| 2026-05-08 15:53 | 34.82206 | 44.25253 | 33992 ft | 487 kts | 341° |
| 2026-05-08 15:54 | 34.88783 | 44.23244 | 33993 ft | 487 kts | 341° |
| 2026-05-08 15:54 | 34.95350 | 44.21234 | 33999 ft | 486 kts | 341° |
| 2026-05-08 15:55 | 35.01914 | 44.19222 | 34000 ft | 485 kts | 340° |
| 2026-05-08 15:55 | 35.11738 | 44.16204 | 34000 ft | 485 kts | 340° |
| 2026-05-08 15:56 | 35.18244 | 44.14202 | 34006 ft | 485 kts | 340° |
| 2026-05-08 15:56 | 35.24794 | 44.12182 | 34001 ft | 485 kts | 340° |
| 2026-05-08 15:57 | 35.31346 | 44.10159 | 34004 ft | 485 kts | 340° |
| 2026-05-08 15:57 | 35.37892 | 44.08134 | 34004 ft | 485 kts | 340° |
| 2026-05-08 15:58 | 35.44402 | 44.06116 | 34008 ft | 485 kts | 340° |
| 2026-05-08 15:58 | 35.50952 | 44.04084 | 34002 ft | 484 kts | 340° |
| 2026-05-08 15:59 | 35.57493 | 44.02050 | 34010 ft | 484 kts | 340° |
| 2026-05-08 15:59 | 35.64006 | 44.00022 | 34011 ft | 484 kts | 340° |
| 2026-05-08 16:00 | 35.70538 | 43.97984 | 34011 ft | 484 kts | 340° |
| 2026-05-08 16:00 | 35.77071 | 43.95942 | 34017 ft | 483 kts | 340° |
| 2026-05-08 16:01 | 35.83394 | 43.93963 | 34023 ft | 483 kts | 340° |
| 2026-05-08 16:01 | 35.89918 | 43.91918 | 34017 ft | 482 kts | 340° |
| 2026-05-08 16:02 | 35.96432 | 43.89872 | 34028 ft | 482 kts | 340° |
| 2026-05-08 16:02 | 36.02882 | 43.87843 | 34039 ft | 481 kts | 340° |
| 2026-05-08 16:03 | 36.09377 | 43.85795 | 34051 ft | 480 kts | 340° |
| 2026-05-08 16:03 | 36.15830 | 43.83759 | 34049 ft | 480 kts | 340° |
| 2026-05-08 16:04 | 36.22308 | 43.81709 | 34049 ft | 479 kts | 340° |
| 2026-05-08 16:04 | 36.28729 | 43.79522 | 34041 ft | 474 kts | 334° |
| 2026-05-08 16:05 | 36.34767 | 43.76455 | 34041 ft | 471 kts | 331° |
| 2026-05-08 16:05 | 36.40795 | 43.73252 | 34045 ft | 470 kts | 331° |
| 2026-05-08 16:06 | 36.46851 | 43.70075 | 34040 ft | 471 kts | 331° |
| 2026-05-08 16:06 | 36.52875 | 43.66941 | 34033 ft | 472 kts | 332° |
| 2026-05-08 16:07 | 36.58952 | 43.63779 | 34046 ft | 472 kts | 332° |
| 2026-05-08 16:07 | 36.65020 | 43.60613 | 34040 ft | 473 kts | 332° |
| 2026-05-08 16:08 | 36.71056 | 43.57457 | 34055 ft | 473 kts | 332° |
| 2026-05-08 16:08 | 36.77124 | 43.54249 | 34064 ft | 472 kts | 331° |
| 2026-05-08 16:09 | 36.82110 | 43.51472 | 34065 ft | 471 kts | 330° |
| 2026-05-08 16:09 | 36.89089 | 43.47537 | 34078 ft | 472 kts | 330° |
| 2026-05-08 16:10 | 36.95050 | 43.44191 | 34089 ft | 472 kts | 330° |
| 2026-05-08 16:10 | 37.01050 | 43.40830 | 34096 ft | 472 kts | 330° |
| 2026-05-08 16:11 | 37.07056 | 43.37461 | 34099 ft | 471 kts | 330° |
| 2026-05-08 16:11 | 37.13009 | 43.34115 | 34100 ft | 470 kts | 330° |
| 2026-05-08 16:12 | 37.18979 | 43.30753 | 34111 ft | 469 kts | 330° |
| 2026-05-08 16:12 | 37.24941 | 43.27389 | 34118 ft | 469 kts | 330° |
| 2026-05-08 16:13 | 37.30855 | 43.24009 | 34120 ft | 465 kts | 327° |
| 2026-05-08 16:13 | 37.33526 | 43.21783 | 34129 ft | 457 kts | 315° |
| 2026-05-08 16:13 | 37.35752 | 43.19041 | 34146 ft | 451 kts | 307° |
| 2026-05-08 16:14 | 37.37616 | 43.15885 | 34133 ft | 446 kts | 296° |
| 2026-05-08 16:14 | 37.39084 | 43.12442 | 34144 ft | 446 kts | 294° |
| 2026-05-08 16:14 | 37.41938 | 43.05523 | 34126 ft | 448 kts | 295° |
| 2026-05-08 16:15 | 37.44862 | 42.98535 | 34133 ft | 451 kts | 295° |
| 2026-05-08 16:15 | 37.47812 | 42.91560 | 34147 ft | 451 kts | 295° |
| 2026-05-08 16:16 | 37.50756 | 42.84604 | 34148 ft | 452 kts | 295° |
| 2026-05-08 16:16 | 37.53715 | 42.77594 | 34133 ft | 452 kts | 295° |
| 2026-05-08 16:17 | 37.56168 | 42.71766 | 34140 ft | 452 kts | 295° |
| 2026-05-08 16:17 | 37.59594 | 42.63621 | 34128 ft | 450 kts | 295° |
| 2026-05-08 16:18 | 37.62522 | 42.56682 | 34126 ft | 449 kts | 295° |
| 2026-05-08 16:18 | 37.64970 | 42.50882 | 34135 ft | 449 kts | 295° |
| 2026-05-08 16:19 | 37.68372 | 42.42795 | 34130 ft | 447 kts | 295° |
| 2026-05-08 16:19 | 37.70800 | 42.37010 | 34131 ft | 447 kts | 295° |
| 2026-05-08 16:20 | 37.73720 | 42.30035 | 34137 ft | 447 kts | 295° |
| 2026-05-08 16:20 | 37.76613 | 42.23109 | 34136 ft | 448 kts | 295° |
| 2026-05-08 16:21 | 37.79529 | 42.16114 | 34124 ft | 449 kts | 296° |
| 2026-05-08 16:21 | 37.82421 | 42.09162 | 34121 ft | 449 kts | 295° |
| 2026-05-08 16:22 | 37.85317 | 42.02183 | 34124 ft | 448 kts | 295° |
| 2026-05-08 16:22 | 37.88226 | 41.95161 | 34117 ft | 449 kts | 295° |
| 2026-05-08 16:23 | 37.91337 | 41.88278 | 34112 ft | 451 kts | 302° |
| 2026-05-08 16:23 | 37.95269 | 41.82082 | 34117 ft | 454 kts | 309° |
| 2026-05-08 16:24 | 37.99479 | 41.76110 | 34116 ft | 454 kts | 309° |
| 2026-05-08 16:24 | 38.03663 | 41.70145 | 34119 ft | 455 kts | 309° |
| 2026-05-08 16:25 | 38.07860 | 41.64110 | 34118 ft | 455 kts | 309° |
| 2026-05-08 16:25 | 38.12021 | 41.58100 | 34124 ft | 455 kts | 309° |
| 2026-05-08 16:26 | 38.16211 | 41.52035 | 34119 ft | 455 kts | 309° |
| 2026-05-08 16:26 | 38.20392 | 41.45972 | 34122 ft | 455 kts | 309° |
| 2026-05-08 16:27 | 38.24545 | 41.39940 | 34115 ft | 455 kts | 309° |
| 2026-05-08 16:27 | 38.28723 | 41.33860 | 34131 ft | 456 kts | 309° |
| 2026-05-08 16:28 | 38.32899 | 41.27770 | 34137 ft | 455 kts | 309° |
| 2026-05-08 16:28 | 38.37066 | 41.21683 | 34122 ft | 456 kts | 309° |
| 2026-05-08 16:29 | 38.41211 | 41.15614 | 34125 ft | 456 kts | 309° |
| 2026-05-08 16:29 | 38.45381 | 41.09499 | 34129 ft | 456 kts | 309° |
| 2026-05-08 16:30 | 38.49509 | 41.03331 | 34133 ft | 456 kts | 308° |
| 2026-05-08 16:30 | 38.53551 | 40.97129 | 34146 ft | 456 kts | 308° |
| 2026-05-08 16:31 | 38.57623 | 40.90888 | 34149 ft | 456 kts | 308° |
| 2026-05-08 16:31 | 38.61678 | 40.84683 | 34147 ft | 457 kts | 308° |
| 2026-05-08 16:32 | 38.65781 | 40.78425 | 34146 ft | 458 kts | 309° |
| 2026-05-08 16:32 | 38.69874 | 40.72253 | 34164 ft | 457 kts | 309° |
| 2026-05-08 16:33 | 38.74005 | 40.66013 | 34168 ft | 458 kts | 309° |
| 2026-05-08 16:33 | 38.78122 | 40.59770 | 34168 ft | 458 kts | 309° |
| 2026-05-08 16:34 | 38.82205 | 40.53560 | 34162 ft | 458 kts | 309° |
| 2026-05-08 16:34 | 38.86316 | 40.47295 | 34173 ft | 458 kts | 309° |
| 2026-05-08 16:35 | 38.90425 | 40.41022 | 34163 ft | 458 kts | 309° |
| 2026-05-08 16:35 | 38.94498 | 40.34791 | 34162 ft | 458 kts | 309° |
| 2026-05-08 16:36 | 38.98605 | 40.28496 | 34175 ft | 457 kts | 309° |
| 2026-05-08 16:36 | 39.02666 | 40.22260 | 34165 ft | 456 kts | 309° |
| 2026-05-08 16:37 | 39.06752 | 40.15972 | 34158 ft | 456 kts | 309° |
| 2026-05-08 16:37 | 39.10796 | 40.09737 | 34163 ft | 455 kts | 309° |
| 2026-05-08 16:38 | 39.14859 | 40.03458 | 34160 ft | 455 kts | 309° |
| 2026-05-08 16:38 | 39.18918 | 39.97177 | 34155 ft | 455 kts | 309° |
| 2026-05-08 16:39 | 39.22949 | 39.90931 | 34162 ft | 455 kts | 309° |
| 2026-05-08 16:39 | 39.27004 | 39.84636 | 34156 ft | 455 kts | 309° |
| 2026-05-08 16:40 | 39.31028 | 39.78377 | 34165 ft | 456 kts | 309° |
| 2026-05-08 16:40 | 39.35089 | 39.72047 | 34158 ft | 456 kts | 309° |
| 2026-05-08 16:41 | 39.39143 | 39.65712 | 34162 ft | 457 kts | 309° |
| 2026-05-08 16:42 | 39.45207 | 39.56215 | 34159 ft | 457 kts | 309° |
| 2026-05-08 16:42 | 39.49243 | 39.49881 | 34165 ft | 458 kts | 309° |
| 2026-05-08 16:43 | 39.53286 | 39.43489 | 34158 ft | 458 kts | 309° |
| 2026-05-08 16:43 | 39.57261 | 39.37077 | 34172 ft | 459 kts | 309° |
| 2026-05-08 16:44 | 39.61269 | 39.30592 | 34163 ft | 459 kts | 309° |
| 2026-05-08 16:44 | 39.65264 | 39.24132 | 34161 ft | 458 kts | 309° |
| 2026-05-08 16:45 | 39.69224 | 39.17718 | 34165 ft | 457 kts | 309° |
| 2026-05-08 16:45 | 39.73211 | 39.11254 | 34177 ft | 457 kts | 309° |
| 2026-05-08 16:46 | 39.77208 | 39.04870 | 34174 ft | 457 kts | 310° |
| 2026-05-08 16:46 | 39.81234 | 38.98472 | 34172 ft | 456 kts | 310° |
| 2026-05-08 16:47 | 39.85244 | 38.92074 | 34183 ft | 456 kts | 310° |
| 2026-05-08 16:47 | 39.89252 | 38.85653 | 34185 ft | 456 kts | 310° |
| 2026-05-08 16:48 | 39.93237 | 38.79254 | 34175 ft | 456 kts | 310° |
| 2026-05-08 16:48 | 39.97237 | 38.72817 | 34178 ft | 456 kts | 310° |
| 2026-05-08 16:49 | 40.01210 | 38.66410 | 34183 ft | 456 kts | 310° |
| 2026-05-08 16:49 | 40.05205 | 38.59958 | 34183 ft | 456 kts | 310° |
| 2026-05-08 16:50 | 40.09194 | 38.53499 | 34180 ft | 455 kts | 310° |
| 2026-05-08 16:50 | 40.13143 | 38.47092 | 34191 ft | 455 kts | 310° |
| 2026-05-08 16:51 | 40.17096 | 38.40665 | 34190 ft | 455 kts | 310° |
| 2026-05-08 16:51 | 40.21066 | 38.34198 | 34195 ft | 455 kts | 310° |
| 2026-05-08 16:52 | 40.25037 | 38.27715 | 34200 ft | 455 kts | 310° |
| 2026-05-08 16:52 | 40.28970 | 38.21282 | 34199 ft | 455 kts | 310° |
| 2026-05-08 16:53 | 40.34098 | 38.10765 | 34198 ft | 458 kts | 297° |
| 2026-05-08 16:53 | 40.36476 | 38.03018 | 34191 ft | 460 kts | 294° |
| 2026-05-08 16:54 | 40.38778 | 37.95188 | 34186 ft | 460 kts | 294° |
| 2026-05-08 16:54 | 40.41114 | 37.87339 | 34186 ft | 461 kts | 294° |
| 2026-05-08 16:55 | 40.43447 | 37.79533 | 34186 ft | 461 kts | 294° |
| 2026-05-08 16:55 | 40.45791 | 37.71673 | 34192 ft | 461 kts | 294° |
| 2026-05-08 16:56 | 40.48110 | 37.63868 | 34192 ft | 461 kts | 294° |
| 2026-05-08 16:56 | 40.50439 | 37.56011 | 34184 ft | 460 kts | 294° |
| 2026-05-08 16:57 | 40.52745 | 37.48210 | 34180 ft | 460 kts | 294° |
| 2026-05-08 16:57 | 40.55063 | 37.40346 | 34189 ft | 460 kts | 294° |
| 2026-05-08 16:58 | 40.57358 | 37.32537 | 34194 ft | 460 kts | 294° |
| 2026-05-08 16:58 | 40.59665 | 37.24662 | 34185 ft | 460 kts | 294° |
| 2026-05-08 16:59 | 40.61964 | 37.16788 | 34183 ft | 460 kts | 294° |
| 2026-05-08 16:59 | 40.64240 | 37.08967 | 34177 ft | 460 kts | 294° |
| 2026-05-08 17:00 | 40.66527 | 37.01092 | 34180 ft | 459 kts | 294° |
| 2026-05-08 17:00 | 40.68793 | 36.93263 | 34169 ft | 459 kts | 294° |
| 2026-05-08 17:01 | 40.71069 | 36.85373 | 34174 ft | 458 kts | 294° |
| 2026-05-08 17:01 | 40.73325 | 36.77528 | 34162 ft | 457 kts | 294° |
| 2026-05-08 17:02 | 40.75567 | 36.69716 | 34166 ft | 456 kts | 294° |
| 2026-05-08 17:02 | 40.77801 | 36.61917 | 34162 ft | 456 kts | 294° |
| 2026-05-08 17:03 | 40.80045 | 36.54098 | 34169 ft | 455 kts | 294° |
| 2026-05-08 17:03 | 40.82285 | 36.46267 | 34163 ft | 454 kts | 294° |
| 2026-05-08 17:04 | 40.84493 | 36.38520 | 34162 ft | 452 kts | 294° |
| 2026-05-08 17:04 | 40.86706 | 36.30721 | 34161 ft | 452 kts | 294° |
| 2026-05-08 17:05 | 40.88896 | 36.22992 | 34142 ft | 451 kts | 294° |
| 2026-05-08 17:05 | 40.91086 | 36.15233 | 34149 ft | 449 kts | 294° |
| 2026-05-08 17:06 | 40.93273 | 36.07471 | 34137 ft | 449 kts | 294° |
| 2026-05-08 17:06 | 40.95410 | 35.99748 | 34150 ft | 448 kts | 293° |
| 2026-05-08 17:07 | 40.97528 | 35.91993 | 34128 ft | 449 kts | 293° |
| 2026-05-08 17:07 | 40.99658 | 35.84211 | 34133 ft | 449 kts | 293° |
| 2026-05-08 17:08 | 41.01807 | 35.76466 | 34128 ft | 450 kts | 293° |
| 2026-05-08 17:08 | 41.03608 | 35.69984 | 34120 ft | 450 kts | 293° |
| 2026-05-08 17:09 | 41.05775 | 35.62152 | 34114 ft | 451 kts | 293° |
| 2026-05-08 17:09 | 41.07917 | 35.54370 | 34117 ft | 452 kts | 293° |
| 2026-05-08 17:10 | 41.10071 | 35.46524 | 34121 ft | 452 kts | 293° |
| 2026-05-08 17:10 | 41.12211 | 35.38704 | 34126 ft | 452 kts | 293° |
| 2026-05-08 17:11 | 41.14361 | 35.30819 | 34131 ft | 453 kts | 293° |
| 2026-05-08 17:11 | 41.16491 | 35.22981 | 34150 ft | 453 kts | 292° |
| 2026-05-08 17:12 | 41.18616 | 35.15138 | 34143 ft | 453 kts | 292° |
| 2026-05-08 17:12 | 41.20747 | 35.07253 | 34146 ft | 453 kts | 292° |
| 2026-05-08 17:13 | 41.22866 | 34.99383 | 34123 ft | 453 kts | 292° |
| 2026-05-08 17:13 | 41.24987 | 34.91480 | 34125 ft | 453 kts | 292° |
| 2026-05-08 17:14 | 41.27105 | 34.83573 | 34126 ft | 453 kts | 292° |
| 2026-05-08 17:14 | 41.29200 | 34.75719 | 34126 ft | 452 kts | 292° |
| 2026-05-08 17:15 | 41.31298 | 34.67832 | 34139 ft | 452 kts | 292° |
| 2026-05-08 17:15 | 41.33383 | 34.59973 | 34142 ft | 451 kts | 292° |
| 2026-05-08 17:16 | 41.35473 | 34.52063 | 34145 ft | 451 kts | 292° |
| 2026-05-08 17:16 | 41.37533 | 34.44243 | 34145 ft | 450 kts | 292° |
| 2026-05-08 17:17 | 41.39608 | 34.36345 | 34152 ft | 450 kts | 292° |
| 2026-05-08 17:17 | 41.41650 | 34.28503 | 34154 ft | 449 kts | 292° |
| 2026-05-08 17:18 | 41.43681 | 34.20593 | 34169 ft | 449 kts | 292° |
| 2026-05-08 17:18 | 41.45696 | 34.12742 | 34177 ft | 449 kts | 292° |
| 2026-05-08 17:19 | 41.47714 | 34.04903 | 34189 ft | 449 kts | 292° |
| 2026-05-08 17:19 | 41.49740 | 33.97034 | 34186 ft | 449 kts | 292° |
| 2026-05-08 17:20 | 41.51765 | 33.89130 | 34178 ft | 448 kts | 291° |
| 2026-05-08 17:20 | 41.53765 | 33.81299 | 34201 ft | 447 kts | 291° |
| 2026-05-08 17:21 | 41.55774 | 33.73406 | 34189 ft | 448 kts | 291° |
| 2026-05-08 17:21 | 41.57763 | 33.65565 | 34187 ft | 448 kts | 291° |
| 2026-05-08 17:22 | 41.59770 | 33.57628 | 34177 ft | 449 kts | 291° |
| 2026-05-08 17:22 | 41.61712 | 33.49741 | 34163 ft | 449 kts | 291° |
| 2026-05-08 17:23 | 41.63719 | 33.41794 | 34161 ft | 448 kts | 291° |
| 2026-05-08 17:23 | 41.65710 | 33.33925 | 34155 ft | 448 kts | 291° |
| 2026-05-08 17:24 | 41.67694 | 33.26021 | 34159 ft | 448 kts | 291° |
| 2026-05-08 17:24 | 41.69658 | 33.18155 | 34150 ft | 448 kts | 291° |
| 2026-05-08 17:25 | 41.71634 | 33.10220 | 34148 ft | 447 kts | 291° |
| 2026-05-08 17:25 | 41.73577 | 33.02383 | 34143 ft | 446 kts | 291° |
| 2026-05-08 17:26 | 41.75516 | 32.94442 | 34143 ft | 446 kts | 291° |
| 2026-05-08 17:26 | 41.77433 | 32.86524 | 34125 ft | 447 kts | 290° |
| 2026-05-08 17:27 | 41.79345 | 32.78621 | 34141 ft | 447 kts | 290° |
| 2026-05-08 17:27 | 41.81275 | 32.70683 | 34124 ft | 447 kts | 291° |
| 2026-05-08 17:28 | 41.83224 | 32.62776 | 34127 ft | 448 kts | 291° |
| 2026-05-08 17:28 | 41.85174 | 32.54824 | 34115 ft | 448 kts | 291° |
| 2026-05-08 17:29 | 41.86146 | 32.50847 | 33977 ft | 447 kts | 289° |
| 2026-05-08 17:29 | 41.87103 | 32.46922 | 34067 ft | 445 kts | 289° |
| 2026-05-08 17:29 | 41.88973 | 32.39004 | 34101 ft | 443 kts | 288° |
| 2026-05-08 17:30 | 41.90824 | 32.31134 | 34108 ft | 442 kts | 288° |
| 2026-05-08 17:30 | 41.92702 | 32.23298 | 34109 ft | 443 kts | 288° |
| 2026-05-08 17:31 | 41.94570 | 32.15442 | 34112 ft | 443 kts | 288° |
| 2026-05-08 17:31 | 41.96444 | 32.07529 | 34112 ft | 444 kts | 288° |
| 2026-05-08 17:32 | 41.98318 | 31.99586 | 34107 ft | 446 kts | 288° |
| 2026-05-08 17:32 | 42.00179 | 31.91678 | 34114 ft | 447 kts | 288° |
| 2026-05-08 17:33 | 42.02053 | 31.83682 | 34110 ft | 448 kts | 288° |
| 2026-05-08 17:33 | 42.03925 | 31.75665 | 34115 ft | 449 kts | 288° |
| 2026-05-08 17:34 | 42.05783 | 31.67676 | 34111 ft | 450 kts | 288° |
| 2026-05-08 17:34 | 42.07653 | 31.59609 | 34110 ft | 451 kts | 288° |
| 2026-05-08 17:35 | 42.09518 | 31.51530 | 34109 ft | 451 kts | 287° |
| 2026-05-08 17:35 | 42.11369 | 31.43490 | 34101 ft | 452 kts | 287° |
| 2026-05-08 17:36 | 42.13232 | 31.35377 | 34101 ft | 452 kts | 287° |
| 2026-05-08 17:36 | 42.15086 | 31.27296 | 34098 ft | 453 kts | 287° |
| 2026-05-08 17:37 | 42.16946 | 31.19164 | 34100 ft | 454 kts | 287° |
| 2026-05-08 17:37 | 42.18791 | 31.11065 | 34096 ft | 454 kts | 287° |
| 2026-05-08 17:38 | 42.20647 | 31.02884 | 34097 ft | 455 kts | 287° |
| 2026-05-08 17:38 | 42.22490 | 30.94731 | 34097 ft | 456 kts | 287° |
| 2026-05-08 17:39 | 42.24340 | 30.86515 | 34093 ft | 457 kts | 287° |
| 2026-05-08 17:39 | 42.26182 | 30.78306 | 34096 ft | 458 kts | 287° |
| 2026-05-08 17:40 | 42.28017 | 30.70094 | 34094 ft | 459 kts | 287° |
| 2026-05-08 17:40 | 42.29864 | 30.61800 | 34098 ft | 461 kts | 287° |
| 2026-05-08 17:41 | 42.31696 | 30.53538 | 34096 ft | 462 kts | 287° |
| 2026-05-08 17:41 | 42.33541 | 30.45188 | 34092 ft | 463 kts | 287° |
| 2026-05-08 17:42 | 42.35380 | 30.36835 | 34095 ft | 463 kts | 287° |
| 2026-05-08 17:42 | 42.37207 | 30.28503 | 34086 ft | 464 kts | 287° |
| 2026-05-08 17:43 | 42.39042 | 30.20098 | 34083 ft | 465 kts | 286° |
| 2026-05-08 17:43 | 42.40864 | 30.11722 | 34085 ft | 466 kts | 286° |
| 2026-05-08 17:44 | 42.42681 | 30.03338 | 34081 ft | 466 kts | 286° |
| 2026-05-08 17:44 | 42.44501 | 29.94911 | 34085 ft | 467 kts | 286° |
| 2026-05-08 17:45 | 42.46911 | 29.86728 | 34088 ft | 468 kts | 297° |
| 2026-05-08 17:45 | 42.50417 | 29.79268 | 34077 ft | 469 kts | 306° |
| 2026-05-08 17:46 | 42.54382 | 29.72285 | 34077 ft | 470 kts | 307° |
| 2026-05-08 17:46 | 42.58395 | 29.65247 | 34076 ft | 471 kts | 307° |
| 2026-05-08 17:47 | 42.62355 | 29.58209 | 34075 ft | 471 kts | 306° |
| 2026-05-08 17:47 | 42.65658 | 29.52292 | 34073 ft | 472 kts | 306° |
| 2026-05-08 17:48 | 42.70267 | 29.44007 | 34074 ft | 472 kts | 306° |
| 2026-05-08 17:48 | 42.74234 | 29.36860 | 34070 ft | 472 kts | 306° |
| 2026-05-08 17:49 | 42.78166 | 29.29762 | 34069 ft | 472 kts | 306° |
| 2026-05-08 17:49 | 42.82128 | 29.22591 | 34069 ft | 472 kts | 306° |
| 2026-05-08 17:50 | 42.86058 | 29.15462 | 34072 ft | 473 kts | 306° |
| 2026-05-08 17:50 | 42.90007 | 29.08281 | 34072 ft | 473 kts | 306° |
| 2026-05-08 17:51 | 42.93965 | 29.01068 | 34070 ft | 473 kts | 306° |
| 2026-05-08 17:51 | 42.97879 | 28.93915 | 34070 ft | 473 kts | 306° |
| 2026-05-08 17:52 | 43.01819 | 28.86697 | 34069 ft | 473 kts | 306° |
| 2026-05-08 17:53 | 43.07697 | 28.75886 | 34072 ft | 474 kts | 306° |
| 2026-05-08 17:53 | 43.11602 | 28.68614 | 34070 ft | 474 kts | 305° |
| 2026-05-08 17:54 | 43.15503 | 28.61317 | 34063 ft | 474 kts | 305° |
| 2026-05-08 17:54 | 43.19388 | 28.54038 | 34066 ft | 475 kts | 305° |
| 2026-05-08 17:55 | 43.23299 | 28.46699 | 34066 ft | 475 kts | 305° |
| 2026-05-08 17:55 | 43.27182 | 28.39396 | 34065 ft | 475 kts | 305° |
| 2026-05-08 17:56 | 43.31079 | 28.32048 | 34064 ft | 476 kts | 305° |
| 2026-05-08 17:56 | 43.34958 | 28.24715 | 34063 ft | 476 kts | 305° |
| 2026-05-08 17:57 | 43.38836 | 28.17365 | 34053 ft | 476 kts | 305° |
| 2026-05-08 17:57 | 43.42729 | 28.09969 | 34046 ft | 476 kts | 305° |
| 2026-05-08 17:58 | 43.46617 | 28.02565 | 34042 ft | 477 kts | 305° |
| 2026-05-08 17:58 | 43.50481 | 27.95187 | 34032 ft | 477 kts | 304° |
| 2026-05-08 17:59 | 43.53622 | 27.89175 | 34044 ft | 477 kts | 304° |
| 2026-05-08 17:59 | 43.55534 | 27.85512 | 34009 ft | 461 kts | 304° |
| 2026-05-08 17:59 | 43.57379 | 27.81974 | 34004 ft | 446 kts | 304° |
| 2026-05-08 17:59 | 43.59161 | 27.78553 | 34000 ft | 430 kts | 304° |
| 2026-05-08 18:00 | 43.60874 | 27.75260 | 34009 ft | 415 kts | 304° |
| 2026-05-08 18:00 | 43.64127 | 27.68992 | 33991 ft | 394 kts | 304° |
| 2026-05-08 18:00 | 43.65729 | 27.65897 | 34043 ft | 400 kts | 304° |
| 2026-05-08 18:01 | 43.68989 | 27.59586 | 34038 ft | 413 kts | 304° |
| 2026-05-08 18:01 | 43.72368 | 27.53038 | 34003 ft | 416 kts | 304° |
| 2026-05-08 18:02 | 43.75740 | 27.46488 | 34014 ft | 424 kts | 304° |
| 2026-05-08 18:02 | 43.79216 | 27.39722 | 34011 ft | 438 kts | 304° |
| 2026-05-08 18:03 | 43.82800 | 27.32730 | 34012 ft | 452 kts | 304° |
| 2026-05-08 18:03 | 43.86486 | 27.25524 | 34029 ft | 465 kts | 304° |
| 2026-05-08 18:04 | 43.90265 | 27.18118 | 34007 ft | 476 kts | 304° |
| 2026-05-08 18:04 | 43.94108 | 27.10565 | 34002 ft | 480 kts | 304° |
| 2026-05-08 18:05 | 43.97957 | 27.02983 | 33990 ft | 480 kts | 304° |
| 2026-05-08 18:05 | 44.01795 | 26.95402 | 33994 ft | 480 kts | 304° |
| 2026-05-08 18:06 | 44.05604 | 26.87858 | 33989 ft | 479 kts | 303° |
| 2026-05-08 18:06 | 44.09422 | 26.80238 | 33992 ft | 478 kts | 303° |
| 2026-05-08 18:07 | 44.13111 | 26.72526 | 33989 ft | 477 kts | 302° |
| 2026-05-08 18:07 | 44.16734 | 26.64826 | 33986 ft | 477 kts | 302° |
| 2026-05-08 18:08 | 44.20365 | 26.57123 | 33988 ft | 477 kts | 302° |
| 2026-05-08 18:08 | 44.24019 | 26.49382 | 33985 ft | 477 kts | 302° |
| 2026-05-08 18:09 | 44.27675 | 26.41631 | 33986 ft | 477 kts | 302° |
| 2026-05-08 18:09 | 44.31319 | 26.33882 | 33989 ft | 477 kts | 302° |
| 2026-05-08 18:10 | 44.34940 | 26.26160 | 33990 ft | 477 kts | 302° |
| 2026-05-08 18:10 | 44.38558 | 26.18425 | 33996 ft | 477 kts | 302° |
| 2026-05-08 18:11 | 44.42189 | 26.10639 | 34000 ft | 477 kts | 302° |
| 2026-05-08 18:11 | 44.45813 | 26.02848 | 33997 ft | 477 kts | 302° |
| 2026-05-08 18:12 | 44.49426 | 25.95058 | 33995 ft | 477 kts | 302° |
| 2026-05-08 18:12 | 44.53012 | 25.87308 | 33996 ft | 476 kts | 301° |
| 2026-05-08 18:13 | 44.56612 | 25.79505 | 33989 ft | 476 kts | 301° |
| 2026-05-08 18:13 | 44.60202 | 25.71703 | 33983 ft | 476 kts | 301° |
| 2026-05-08 18:14 | 44.63785 | 25.63896 | 33977 ft | 476 kts | 301° |
| 2026-05-08 18:14 | 44.67364 | 25.56075 | 33981 ft | 475 kts | 301° |
| 2026-05-08 18:15 | 44.70940 | 25.48240 | 33978 ft | 475 kts | 301° |
| 2026-05-08 18:15 | 44.74480 | 25.40461 | 33984 ft | 475 kts | 301° |
| 2026-05-08 18:16 | 44.78034 | 25.32631 | 33986 ft | 475 kts | 301° |
| 2026-05-08 18:16 | 44.81584 | 25.24789 | 33988 ft | 475 kts | 301° |
| 2026-05-08 18:17 | 44.85134 | 25.16925 | 33988 ft | 475 kts | 301° |
| 2026-05-08 18:17 | 44.88676 | 25.09057 | 33991 ft | 475 kts | 301° |
| 2026-05-08 18:18 | 44.92213 | 25.01179 | 34000 ft | 476 kts | 301° |
| 2026-05-08 18:18 | 44.95750 | 24.93278 | 33998 ft | 476 kts | 300° |
| 2026-05-08 18:19 | 44.99279 | 24.85375 | 34000 ft | 476 kts | 300° |
| 2026-05-08 18:19 | 45.02802 | 24.77461 | 34008 ft | 475 kts | 300° |
| 2026-05-08 18:20 | 45.06320 | 24.69539 | 34008 ft | 475 kts | 300° |
| 2026-05-08 18:20 | 45.09826 | 24.61620 | 34006 ft | 474 kts | 300° |
| 2026-05-08 18:21 | 45.13321 | 24.53704 | 34012 ft | 474 kts | 300° |
| 2026-05-08 18:21 | 45.16806 | 24.45790 | 34017 ft | 473 kts | 300° |
| 2026-05-08 18:22 | 45.20260 | 24.37924 | 34023 ft | 472 kts | 300° |
| 2026-05-08 18:22 | 45.23714 | 24.30033 | 34021 ft | 470 kts | 300° |
| 2026-05-08 18:23 | 45.27159 | 24.22144 | 34037 ft | 469 kts | 300° |
| 2026-05-08 18:23 | 45.30596 | 24.14251 | 34050 ft | 472 kts | 300° |
| 2026-05-08 18:24 | 45.34073 | 24.06236 | 34046 ft | 480 kts | 300° |
| 2026-05-08 18:24 | 45.37558 | 23.98189 | 34053 ft | 479 kts | 300° |
| 2026-05-08 18:25 | 45.41035 | 23.90138 | 34046 ft | 478 kts | 299° |
| 2026-05-08 18:25 | 45.44495 | 23.82103 | 34065 ft | 476 kts | 299° |
| 2026-05-08 18:26 | 45.47963 | 23.74087 | 34068 ft | 475 kts | 301° |
| 2026-05-08 18:26 | 45.51881 | 23.66483 | 34071 ft | 476 kts | 305° |
| 2026-05-08 18:27 | 45.55279 | 23.60288 | 34067 ft | 477 kts | 306° |
| 2026-05-08 18:27 | 45.60064 | 23.51632 | 34070 ft | 478 kts | 306° |
| 2026-05-08 18:28 | 45.64152 | 23.44118 | 34066 ft | 479 kts | 305° |
| 2026-05-08 18:28 | 45.68253 | 23.36574 | 34059 ft | 481 kts | 307° |
| 2026-05-08 18:29 | 45.72743 | 23.29430 | 34058 ft | 483 kts | 310° |
| 2026-05-08 18:29 | 45.77377 | 23.22439 | 34055 ft | 484 kts | 311° |
| 2026-05-08 18:30 | 45.82031 | 23.15472 | 34039 ft | 484 kts | 311° |
| 2026-05-08 18:30 | 45.86707 | 23.08503 | 34037 ft | 484 kts | 311° |
| 2026-05-08 18:31 | 45.91357 | 23.01595 | 34039 ft | 483 kts | 311° |
| 2026-05-08 18:31 | 45.96052 | 22.94638 | 34036 ft | 483 kts | 311° |
| 2026-05-08 18:32 | 46.00711 | 22.87748 | 34043 ft | 482 kts | 311° |
| 2026-05-08 18:32 | 46.05406 | 22.80824 | 34036 ft | 481 kts | 311° |
| 2026-05-08 18:33 | 46.10089 | 22.73931 | 34036 ft | 480 kts | 311° |
| 2026-05-08 18:33 | 46.14739 | 22.67094 | 34040 ft | 479 kts | 311° |
| 2026-05-08 18:34 | 46.19421 | 22.60216 | 34036 ft | 479 kts | 311° |
| 2026-05-08 18:34 | 46.24068 | 22.53381 | 34037 ft | 479 kts | 311° |
| 2026-05-08 18:35 | 46.28727 | 22.46530 | 34047 ft | 478 kts | 311° |
| 2026-05-08 18:35 | 46.33409 | 22.39642 | 34046 ft | 478 kts | 311° |
| 2026-05-08 18:36 | 46.38084 | 22.32757 | 34037 ft | 479 kts | 311° |
| 2026-05-08 18:36 | 46.42561 | 22.25753 | 34019 ft | 472 kts | 303° |
| 2026-05-08 18:37 | 46.44292 | 22.21722 | 34019 ft | 460 kts | 294° |
| 2026-05-08 18:37 | 46.45486 | 22.17522 | 34044 ft | 453 kts | 284° |
| 2026-05-08 18:37 | 46.46733 | 22.08647 | 34030 ft | 448 kts | 276° |
| 2026-05-08 18:38 | 46.47545 | 21.99703 | 34021 ft | 447 kts | 275° |
| 2026-05-08 18:38 | 46.48306 | 21.90768 | 34036 ft | 446 kts | 275° |
| 2026-05-08 18:39 | 46.48841 | 21.81801 | 34032 ft | 445 kts | 270° |
| 2026-05-08 18:39 | 46.48918 | 21.72795 | 34029 ft | 446 kts | 269° |
| 2026-05-08 18:40 | 46.48973 | 21.63795 | 34020 ft | 447 kts | 269° |
| 2026-05-08 18:40 | 46.49077 | 21.54761 | 34023 ft | 448 kts | 269° |
| 2026-05-08 18:41 | 46.49190 | 21.45763 | 34024 ft | 448 kts | 269° |
| 2026-05-08 18:41 | 46.49296 | 21.36709 | 34027 ft | 449 kts | 269° |
| 2026-05-08 18:42 | 46.49950 | 21.27690 | 34021 ft | 452 kts | 281° |
| 2026-05-08 18:42 | 46.51935 | 21.19052 | 34016 ft | 457 kts | 292° |
| 2026-05-08 18:43 | 46.54786 | 21.10785 | 34019 ft | 457 kts | 293° |
| 2026-05-08 18:43 | 46.57697 | 21.02548 | 34024 ft | 457 kts | 293° |
| 2026-05-08 18:44 | 46.60556 | 20.94341 | 34020 ft | 456 kts | 293° |
| 2026-05-08 18:44 | 46.63394 | 20.86083 | 34022 ft | 455 kts | 292° |
| 2026-05-08 18:45 | 46.66200 | 20.77866 | 34022 ft | 454 kts | 292° |
| 2026-05-08 18:45 | 46.68995 | 20.69651 | 34024 ft | 453 kts | 292° |
| 2026-05-08 18:46 | 46.71791 | 20.61411 | 34025 ft | 452 kts | 292° |
| 2026-05-08 18:46 | 46.74557 | 20.53232 | 34028 ft | 451 kts | 292° |
| 2026-05-08 18:47 | 46.76871 | 20.46371 | 34025 ft | 451 kts | 292° |
| 2026-05-08 18:47 | 46.79623 | 20.38190 | 34027 ft | 450 kts | 292° |
| 2026-05-08 18:48 | 46.82387 | 20.29947 | 34028 ft | 451 kts | 292° |
| 2026-05-08 18:48 | 46.85122 | 20.21762 | 34025 ft | 451 kts | 292° |
| 2026-05-08 18:49 | 46.87876 | 20.13498 | 34024 ft | 452 kts | 292° |
| 2026-05-08 18:49 | 46.90639 | 20.05177 | 34030 ft | 453 kts | 292° |
| 2026-05-08 18:50 | 46.93386 | 19.96879 | 34027 ft | 454 kts | 292° |
| 2026-05-08 18:50 | 46.96126 | 19.88576 | 34026 ft | 456 kts | 291° |
| 2026-05-08 18:51 | 46.98886 | 19.80185 | 34029 ft | 457 kts | 291° |
| 2026-05-08 18:51 | 47.01632 | 19.71811 | 34028 ft | 457 kts | 291° |
| 2026-05-08 18:52 | 47.04384 | 19.63390 | 34016 ft | 457 kts | 291° |
| 2026-05-08 18:52 | 47.07130 | 19.54960 | 34022 ft | 457 kts | 291° |
| 2026-05-08 18:53 | 47.09853 | 19.46575 | 34034 ft | 457 kts | 291° |
| 2026-05-08 18:53 | 47.12578 | 19.38152 | 34031 ft | 457 kts | 291° |
| 2026-05-08 18:54 | 47.15297 | 19.29725 | 34030 ft | 456 kts | 291° |
| 2026-05-08 18:54 | 47.18007 | 19.21295 | 34027 ft | 456 kts | 291° |
| 2026-05-08 18:55 | 47.22050 | 19.08666 | 34031 ft | 456 kts | 290° |
| 2026-05-08 18:56 | 47.24745 | 19.00212 | 34033 ft | 456 kts | 290° |
| 2026-05-08 18:56 | 47.27428 | 18.91768 | 34034 ft | 455 kts | 290° |
| 2026-05-08 18:57 | 47.30097 | 18.83340 | 34037 ft | 455 kts | 290° |
| 2026-05-08 18:57 | 47.32768 | 18.74880 | 34035 ft | 455 kts | 290° |
| 2026-05-08 18:58 | 47.35432 | 18.66409 | 34045 ft | 455 kts | 290° |
| 2026-05-08 18:58 | 47.38094 | 18.57923 | 34054 ft | 454 kts | 290° |
| 2026-05-08 18:59 | 47.40740 | 18.49454 | 34052 ft | 454 kts | 290° |
| 2026-05-08 18:59 | 47.43364 | 18.41029 | 34050 ft | 453 kts | 290° |
| 2026-05-08 19:00 | 47.45996 | 18.32551 | 34050 ft | 452 kts | 290° |
| 2026-05-08 19:00 | 47.48598 | 18.24140 | 34050 ft | 451 kts | 290° |
| 2026-05-08 19:01 | 47.51199 | 18.15704 | 34052 ft | 451 kts | 290° |
| 2026-05-08 19:01 | 47.53799 | 18.07244 | 34051 ft | 451 kts | 290° |
| 2026-05-08 19:02 | 47.56389 | 17.98785 | 34050 ft | 450 kts | 290° |
| 2026-05-08 19:02 | 47.58957 | 17.90371 | 34051 ft | 450 kts | 290° |
| 2026-05-08 19:03 | 47.61532 | 17.81904 | 34051 ft | 450 kts | 290° |
| 2026-05-08 19:03 | 47.64091 | 17.73464 | 34047 ft | 450 kts | 290° |
| 2026-05-08 19:04 | 47.66646 | 17.65004 | 34052 ft | 450 kts | 290° |
| 2026-05-08 19:04 | 47.69197 | 17.56532 | 34056 ft | 450 kts | 290° |
| 2026-05-08 19:05 | 47.71760 | 17.47991 | 34053 ft | 450 kts | 290° |
| 2026-05-08 19:05 | 47.74288 | 17.39537 | 34056 ft | 449 kts | 289° |
| 2026-05-08 19:06 | 47.76812 | 17.31067 | 34059 ft | 449 kts | 289° |
| 2026-05-08 19:06 | 47.79344 | 17.22541 | 34056 ft | 449 kts | 289° |
| 2026-05-08 19:07 | 47.81854 | 17.14057 | 34056 ft | 449 kts | 289° |
| 2026-05-08 19:07 | 47.84370 | 17.05529 | 34062 ft | 449 kts | 289° |
| 2026-05-08 19:08 | 47.86866 | 16.97034 | 34063 ft | 449 kts | 289° |
| 2026-05-08 19:08 | 47.89364 | 16.88505 | 34068 ft | 449 kts | 289° |
| 2026-05-08 19:09 | 47.91860 | 16.79954 | 34070 ft | 449 kts | 289° |
| 2026-05-08 19:09 | 47.94334 | 16.71445 | 34077 ft | 448 kts | 288° |
| 2026-05-08 19:10 | 47.96821 | 16.62863 | 34078 ft | 448 kts | 288° |
| 2026-05-08 19:10 | 47.99276 | 16.54364 | 34083 ft | 448 kts | 288° |
| 2026-05-08 19:11 | 48.01739 | 16.45803 | 34085 ft | 448 kts | 288° |
| 2026-05-08 19:11 | 48.04200 | 16.37222 | 34071 ft | 448 kts | 288° |
| 2026-05-08 19:12 | 48.06644 | 16.28668 | 34065 ft | 448 kts | 288° |
| 2026-05-08 19:12 | 48.09079 | 16.20119 | 34076 ft | 448 kts | 288° |
| 2026-05-08 19:13 | 48.11524 | 16.11497 | 34075 ft | 449 kts | 288° |
| 2026-05-08 19:13 | 48.13949 | 16.02919 | 34074 ft | 450 kts | 288° |
| 2026-05-08 19:14 | 48.16388 | 15.94257 | 34076 ft | 451 kts | 288° |
| 2026-05-08 19:14 | 48.18818 | 15.85601 | 34077 ft | 452 kts | 288° |
| 2026-05-08 19:15 | 48.21252 | 15.76896 | 34082 ft | 453 kts | 288° |
| 2026-05-08 19:15 | 48.23675 | 15.68203 | 34081 ft | 453 kts | 288° |
| 2026-05-08 19:16 | 48.26110 | 15.59431 | 34080 ft | 454 kts | 288° |
| 2026-05-08 19:16 | 48.28525 | 15.50699 | 34077 ft | 455 kts | 288° |
| 2026-05-08 19:17 | 48.30935 | 15.41954 | 34083 ft | 455 kts | 288° |
| 2026-05-08 19:17 | 48.33362 | 15.33109 | 34079 ft | 455 kts | 287° |
| 2026-05-08 19:18 | 48.35766 | 15.24324 | 34081 ft | 455 kts | 287° |
| 2026-05-08 19:18 | 48.38168 | 15.15511 | 34088 ft | 455 kts | 287° |
| 2026-05-08 19:19 | 48.40554 | 15.06721 | 34087 ft | 455 kts | 287° |
| 2026-05-08 19:19 | 48.42947 | 14.97870 | 34083 ft | 455 kts | 287° |
| 2026-05-08 19:20 | 48.45314 | 14.89087 | 34097 ft | 455 kts | 287° |
| 2026-05-08 19:20 | 48.47687 | 14.80247 | 34093 ft | 454 kts | 287° |
| 2026-05-08 19:21 | 48.50039 | 14.71452 | 34089 ft | 454 kts | 287° |
| 2026-05-08 19:21 | 48.52401 | 14.62591 | 34091 ft | 453 kts | 287° |
| 2026-05-08 19:22 | 48.54732 | 14.53808 | 34074 ft | 452 kts | 286° |
| 2026-05-08 19:22 | 48.57061 | 14.44997 | 34085 ft | 451 kts | 286° |
| 2026-05-08 19:23 | 48.59369 | 14.36235 | 34096 ft | 450 kts | 287° |
| 2026-05-08 19:23 | 48.61664 | 14.27487 | 34091 ft | 449 kts | 287° |
| 2026-05-08 19:24 | 48.63960 | 14.18703 | 34102 ft | 448 kts | 286° |
| 2026-05-08 19:24 | 48.66247 | 14.09919 | 34093 ft | 448 kts | 286° |
| 2026-05-08 19:25 | 48.68514 | 14.01180 | 34098 ft | 447 kts | 286° |
| 2026-05-08 19:25 | 48.70788 | 13.92379 | 34103 ft | 447 kts | 286° |
| 2026-05-08 19:26 | 48.73047 | 13.83599 | 34111 ft | 448 kts | 286° |
| 2026-05-08 19:26 | 48.75294 | 13.74841 | 34101 ft | 448 kts | 286° |
| 2026-05-08 19:27 | 48.77519 | 13.66002 | 34099 ft | 448 kts | 285° |
| 2026-05-08 19:27 | 48.79628 | 13.57169 | 34095 ft | 447 kts | 285° |
| 2026-05-08 19:28 | 48.81738 | 13.48243 | 34097 ft | 448 kts | 285° |
| 2026-05-08 19:28 | 48.83837 | 13.39376 | 34093 ft | 448 kts | 285° |
| 2026-05-08 19:29 | 48.85953 | 13.30436 | 34087 ft | 449 kts | 285° |
| 2026-05-08 19:29 | 48.88066 | 13.21485 | 34083 ft | 449 kts | 285° |
| 2026-05-08 19:30 | 48.90158 | 13.12583 | 34091 ft | 450 kts | 286° |
| 2026-05-08 19:30 | 48.92270 | 13.03551 | 34089 ft | 451 kts | 286° |
| 2026-05-08 19:31 | 48.94361 | 12.94574 | 34081 ft | 453 kts | 286° |
| 2026-05-08 19:31 | 48.96468 | 12.85494 | 34098 ft | 454 kts | 286° |
| 2026-05-08 19:32 | 48.98556 | 12.76452 | 34097 ft | 455 kts | 286° |
| 2026-05-08 19:32 | 49.00301 | 12.68871 | 34091 ft | 456 kts | 286° |
| 2026-05-08 19:33 | 49.02746 | 12.58203 | 34091 ft | 457 kts | 286° |
| 2026-05-08 19:33 | 49.04827 | 12.49077 | 34098 ft | 457 kts | 287° |
| 2026-05-08 19:34 | 49.06914 | 12.39886 | 34097 ft | 458 kts | 287° |
| 2026-05-08 19:34 | 49.08644 | 12.32239 | 34101 ft | 458 kts | 287° |
| 2026-05-08 19:35 | 49.10722 | 12.23015 | 34100 ft | 459 kts | 287° |
| 2026-05-08 19:35 | 49.12785 | 12.13817 | 34108 ft | 460 kts | 287° |
| 2026-05-08 19:36 | 49.14851 | 12.04568 | 34108 ft | 460 kts | 287° |
| 2026-05-08 19:36 | 49.16910 | 11.95305 | 34111 ft | 461 kts | 287° |
| 2026-05-08 19:37 | 49.18969 | 11.86003 | 34114 ft | 461 kts | 287° |
| 2026-05-08 19:37 | 49.21020 | 11.76696 | 34114 ft | 462 kts | 287° |
| 2026-05-08 19:38 | 49.23054 | 11.67426 | 34111 ft | 462 kts | 287° |
| 2026-05-08 19:38 | 49.25096 | 11.58075 | 34107 ft | 463 kts | 287° |
| 2026-05-08 19:39 | 49.27134 | 11.48704 | 34109 ft | 463 kts | 287° |
| 2026-05-08 19:39 | 49.29164 | 11.39321 | 34113 ft | 463 kts | 287° |
| 2026-05-08 19:40 | 49.31173 | 11.29996 | 34122 ft | 464 kts | 287° |
| 2026-05-08 19:40 | 49.33187 | 11.20605 | 34120 ft | 464 kts | 287° |
| 2026-05-08 19:41 | 49.35195 | 11.11196 | 34127 ft | 464 kts | 287° |
| 2026-05-08 19:41 | 49.37197 | 11.01783 | 34130 ft | 464 kts | 287° |
| 2026-05-08 19:42 | 49.39331 | 10.92443 | 34130 ft | 464 kts | 292° |
| 2026-05-08 19:42 | 49.41986 | 10.83452 | 34125 ft | 465 kts | 293° |
| 2026-05-08 19:43 | 49.44650 | 10.74404 | 34122 ft | 465 kts | 293° |
| 2026-05-08 19:43 | 49.47307 | 10.65338 | 34122 ft | 465 kts | 293° |
| 2026-05-08 19:44 | 49.49956 | 10.56260 | 34103 ft | 465 kts | 292° |
| 2026-05-08 19:44 | 49.52595 | 10.47181 | 34102 ft | 465 kts | 292° |
| 2026-05-08 19:45 | 49.55211 | 10.38149 | 34100 ft | 465 kts | 292° |
| 2026-05-08 19:45 | 49.57840 | 10.29035 | 34100 ft | 465 kts | 292° |
| 2026-05-08 19:46 | 49.60458 | 10.19927 | 34105 ft | 465 kts | 292° |
| 2026-05-08 19:46 | 49.64371 | 10.06248 | 34113 ft | 465 kts | 292° |
| 2026-05-08 19:47 | 49.66973 | 9.97110 | 34114 ft | 465 kts | 292° |
| 2026-05-08 19:47 | 49.69565 | 9.87970 | 34120 ft | 465 kts | 292° |
| 2026-05-08 19:48 | 49.72135 | 9.78871 | 34123 ft | 465 kts | 292° |
| 2026-05-08 19:48 | 49.74720 | 9.69688 | 34120 ft | 465 kts | 292° |
| 2026-05-08 19:49 | 49.77296 | 9.60498 | 34121 ft | 465 kts | 292° |
| 2026-05-08 19:49 | 49.79861 | 9.51314 | 34116 ft | 465 kts | 292° |
| 2026-05-08 19:50 | 49.82416 | 9.42130 | 34122 ft | 466 kts | 292° |
| 2026-05-08 19:50 | 49.84973 | 9.32900 | 34117 ft | 466 kts | 292° |
| 2026-05-08 19:51 | 49.87528 | 9.23645 | 34124 ft | 466 kts | 292° |
| 2026-05-08 19:51 | 49.90059 | 9.14437 | 34121 ft | 466 kts | 292° |
| 2026-05-08 19:52 | 49.92587 | 9.05203 | 34120 ft | 467 kts | 292° |
| 2026-05-08 19:52 | 49.95135 | 8.95860 | 34118 ft | 467 kts | 292° |
| 2026-05-08 19:53 | 49.97649 | 8.86608 | 34102 ft | 467 kts | 292° |
| 2026-05-08 19:53 | 50.00173 | 8.77278 | 34096 ft | 467 kts | 292° |
| 2026-05-08 19:54 | 50.02689 | 8.67942 | 34101 ft | 468 kts | 291° |
| 2026-05-08 19:54 | 50.05182 | 8.58654 | 34099 ft | 468 kts | 291° |
| 2026-05-08 19:55 | 50.07691 | 8.49270 | 34117 ft | 468 kts | 291° |
| 2026-05-08 19:55 | 50.10190 | 8.39882 | 34096 ft | 469 kts | 291° |
| 2026-05-08 19:56 | 50.12675 | 8.30511 | 34096 ft | 469 kts | 291° |
| 2026-05-08 19:56 | 50.15165 | 8.21084 | 34124 ft | 469 kts | 291° |
| 2026-05-08 19:57 | 50.17629 | 8.11713 | 34105 ft | 470 kts | 291° |
| 2026-05-08 19:57 | 50.20104 | 8.02263 | 34115 ft | 470 kts | 291° |
| 2026-05-08 19:58 | 50.22575 | 7.92793 | 34119 ft | 470 kts | 291° |
| 2026-05-08 19:58 | 50.25023 | 7.83367 | 34122 ft | 470 kts | 291° |
| 2026-05-08 19:59 | 50.27479 | 7.73873 | 34123 ft | 471 kts | 291° |
| 2026-05-08 19:59 | 50.29927 | 7.64371 | 34122 ft | 471 kts | 291° |
| 2026-05-08 20:00 | 50.32365 | 7.54865 | 34122 ft | 471 kts | 291° |
| 2026-05-08 20:00 | 50.34791 | 7.45367 | 34116 ft | 471 kts | 291° |
| 2026-05-08 20:01 | 50.37221 | 7.35816 | 34111 ft | 471 kts | 291° |
| 2026-05-08 20:01 | 50.39630 | 7.26306 | 34106 ft | 471 kts | 291° |
| 2026-05-08 20:02 | 50.42041 | 7.16746 | 34113 ft | 471 kts | 291° |
| 2026-05-08 20:02 | 50.44440 | 7.07192 | 34112 ft | 470 kts | 291° |
| 2026-05-08 20:03 | 50.46835 | 6.97614 | 34113 ft | 470 kts | 291° |
| 2026-05-08 20:03 | 50.49205 | 6.88099 | 34114 ft | 469 kts | 291° |
| 2026-05-08 20:04 | 50.51580 | 6.78518 | 34116 ft | 469 kts | 291° |
| 2026-05-08 20:04 | 50.53931 | 6.68994 | 34122 ft | 468 kts | 291° |
| 2026-05-08 20:05 | 50.56280 | 6.59437 | 34126 ft | 468 kts | 291° |
| 2026-05-08 20:05 | 50.58605 | 6.49935 | 34126 ft | 467 kts | 291° |
| 2026-05-08 20:06 | 50.60937 | 6.40366 | 34129 ft | 466 kts | 291° |
| 2026-05-08 20:06 | 50.63248 | 6.30843 | 34126 ft | 466 kts | 291° |
| 2026-05-08 20:07 | 50.65553 | 6.21303 | 34123 ft | 465 kts | 291° |
| 2026-05-08 20:07 | 50.67832 | 6.11827 | 34115 ft | 464 kts | 292° |
| 2026-05-08 20:08 | 50.70119 | 6.02277 | 34130 ft | 463 kts | 292° |
| 2026-05-08 20:08 | 50.72387 | 5.92762 | 34135 ft | 462 kts | 292° |
| 2026-05-08 20:09 | 50.74638 | 5.83280 | 34112 ft | 462 kts | 292° |
| 2026-05-08 20:09 | 50.76882 | 5.73786 | 34132 ft | 461 kts | 292° |
| 2026-05-08 20:10 | 50.79115 | 5.64296 | 34125 ft | 460 kts | 292° |
| 2026-05-08 20:10 | 50.81323 | 5.54870 | 34122 ft | 459 kts | 293° |
| 2026-05-08 20:11 | 50.83536 | 5.45383 | 34119 ft | 459 kts | 293° |
| 2026-05-08 20:11 | 50.85737 | 5.35905 | 34117 ft | 458 kts | 293° |
| 2026-05-08 20:12 | 50.87925 | 5.26439 | 34116 ft | 458 kts | 293° |
| 2026-05-08 20:12 | 50.90105 | 5.16970 | 34113 ft | 457 kts | 293° |
| 2026-05-08 20:13 | 50.92272 | 5.07511 | 34114 ft | 456 kts | 293° |
| 2026-05-08 20:13 | 50.94414 | 4.98122 | 34117 ft | 455 kts | 293° |
| 2026-05-08 20:14 | 50.96558 | 4.88683 | 34118 ft | 454 kts | 293° |
| 2026-05-08 20:14 | 50.98689 | 4.79257 | 34119 ft | 453 kts | 294° |
| 2026-05-08 20:15 | 51.00813 | 4.69820 | 34124 ft | 452 kts | 293° |
| 2026-05-08 20:15 | 51.02904 | 4.60490 | 34125 ft | 451 kts | 293° |
| 2026-05-08 20:16 | 51.04991 | 4.51119 | 34404 ft | 444 kts | 293° |
| 2026-05-08 20:16 | 51.07062 | 4.41748 | 34250 ft | 454 kts | 293° |
| 2026-05-08 20:17 | 51.09159 | 4.32302 | 34136 ft | 450 kts | 293° |
| 2026-05-08 20:17 | 51.11223 | 4.22941 | 34121 ft | 446 kts | 293° |
| 2026-05-08 20:18 | 51.13265 | 4.13627 | 34114 ft | 444 kts | 292° |
| 2026-05-08 20:18 | 51.15291 | 4.04340 | 34115 ft | 444 kts | 292° |
| 2026-05-08 20:19 | 51.17313 | 3.95028 | 34110 ft | 445 kts | 292° |
| 2026-05-08 20:19 | 51.19327 | 3.85714 | 34110 ft | 447 kts | 292° |
| 2026-05-08 20:20 | 51.21351 | 3.76309 | 34106 ft | 449 kts | 292° |
| 2026-05-08 20:20 | 51.23366 | 3.66839 | 34106 ft | 450 kts | 291° |
| 2026-05-08 20:21 | 51.24796 | 3.57106 | 34115 ft | 454 kts | 285° |
| 2026-05-08 20:21 | 51.26046 | 3.47226 | 34109 ft | 454 kts | 285° |
| 2026-05-08 20:22 | 51.27119 | 3.39002 | 34112 ft | 453 kts | 285° |
| 2026-05-08 20:22 | 51.28404 | 3.29149 | 34112 ft | 453 kts | 285° |
| 2026-05-08 20:23 | 51.29677 | 3.19306 | 34116 ft | 452 kts | 285° |
| 2026-05-08 20:23 | 51.30941 | 3.09474 | 34124 ft | 451 kts | 285° |
| 2026-05-08 20:24 | 51.32185 | 2.99717 | 34126 ft | 451 kts | 284° |
| 2026-05-08 20:24 | 51.33432 | 2.89878 | 34127 ft | 451 kts | 284° |
| 2026-05-08 20:25 | 51.34670 | 2.80044 | 34126 ft | 451 kts | 284° |
| 2026-05-08 20:25 | 51.35895 | 2.70200 | 34126 ft | 451 kts | 284° |
| 2026-05-08 20:26 | 51.37099 | 2.60353 | 34124 ft | 451 kts | 283° |
| 2026-05-08 20:26 | 51.38288 | 2.50553 | 34124 ft | 451 kts | 283° |
| 2026-05-08 20:27 | 51.39478 | 2.40690 | 34124 ft | 451 kts | 283° |
| 2026-05-08 20:27 | 51.40663 | 2.30818 | 34121 ft | 451 kts | 283° |
| 2026-05-08 20:28 | 51.41849 | 2.20934 | 34126 ft | 451 kts | 283° |
| 2026-05-08 20:28 | 51.43059 | 2.11069 | 34129 ft | 451 kts | 283° |
| 2026-05-08 20:29 | 51.44256 | 2.01210 | 34124 ft | 450 kts | 282° |
| 2026-05-08 20:29 | 51.45435 | 1.91336 | 34135 ft | 450 kts | 282° |
| 2026-05-08 20:30 | 51.46584 | 1.81528 | 34133 ft | 450 kts | 282° |
| 2026-05-08 20:30 | 51.47713 | 1.71638 | 34123 ft | 451 kts | 282° |
| 2026-05-08 20:31 | 51.48839 | 1.61745 | 34131 ft | 451 kts | 282° |
| 2026-05-08 20:31 | 51.49962 | 1.51816 | 34134 ft | 451 kts | 281° |
| 2026-05-08 20:32 | 51.51070 | 1.41957 | 34137 ft | 451 kts | 281° |
| 2026-05-08 20:32 | 51.52176 | 1.32044 | 34132 ft | 451 kts | 281° |
| 2026-05-08 20:33 | 51.53280 | 1.22085 | 34133 ft | 452 kts | 281° |
| 2026-05-08 20:33 | 51.54365 | 1.12200 | 34131 ft | 452 kts | 281° |
| 2026-05-08 20:34 | 51.55454 | 1.02244 | 34138 ft | 452 kts | 281° |
| 2026-05-08 20:35 | 51.57070 | 0.87284 | 34130 ft | 453 kts | 281° |
| 2026-05-08 20:35 | 51.58134 | 0.77284 | 34130 ft | 453 kts | 280° |
| 2026-05-08 20:36 | 51.59192 | 0.67290 | 34133 ft | 453 kts | 280° |
| 2026-05-08 20:36 | 51.60294 | 0.57359 | 34123 ft | 452 kts | 281° |
| 2026-05-08 20:36 | 51.60856 | 0.52398 | 33952 ft | 450 kts | 280° |
| 2026-05-08 20:37 | 51.61371 | 0.47402 | 33552 ft | 453 kts | 279° |
| 2026-05-08 20:37 | 51.61872 | 0.42370 | 33086 ft | 456 kts | 279° |
| 2026-05-08 20:37 | 51.62373 | 0.37320 | 32704 ft | 457 kts | 279° |
| 2026-05-08 20:37 | 51.62882 | 0.32254 | 31805 ft | 462 kts | 279° |
| 2026-05-08 20:38 | 51.63398 | 0.27154 | 30982 ft | 462 kts | 279° |
| 2026-05-08 20:38 | 51.63906 | 0.22138 | 30369 ft | 457 kts | 279° |
| 2026-05-08 20:38 | 51.64566 | 0.17158 | 29657 ft | 453 kts | 284° |
| 2026-05-08 20:38 | 51.65486 | 0.12315 | 29003 ft | 449 kts | 288° |
| 2026-05-08 20:39 | 51.66651 | 0.07668 | 28414 ft | 445 kts | 293° |
| 2026-05-08 20:39 | 51.67940 | 0.03157 | 27831 ft | 440 kts | 293° |
| 2026-05-08 20:39 | 51.69218 | -0.01285 | 27280 ft | 436 kts | 293° |
| 2026-05-08 20:39 | 51.70487 | -0.05718 | 26699 ft | 433 kts | 293° |
| 2026-05-08 20:40 | 51.71738 | -0.10128 | 26152 ft | 429 kts | 293° |
| 2026-05-08 20:40 | 51.72951 | -0.14434 | 25618 ft | 427 kts | 292° |
| 2026-05-08 20:40 | 51.74170 | -0.18786 | 25070 ft | 424 kts | 292° |
| 2026-05-08 20:40 | 51.75377 | -0.23110 | 24473 ft | 423 kts | 292° |
| 2026-05-08 20:41 | 51.76594 | -0.27474 | 23697 ft | 428 kts | 292° |
| 2026-05-08 20:41 | 51.77813 | -0.31850 | 23007 ft | 426 kts | 292° |
| 2026-05-08 20:41 | 51.79037 | -0.36194 | 22391 ft | 421 kts | 295° |
| 2026-05-08 20:41 | 51.80606 | -0.40178 | 21841 ft | 421 kts | 307° |
| 2026-05-08 20:42 | 51.82623 | -0.43602 | 21328 ft | 420 kts | 316° |
| 2026-05-08 20:42 | 51.84971 | -0.46401 | 20810 ft | 419 kts | 326° |
| 2026-05-08 20:42 | 51.87445 | -0.48786 | 20320 ft | 417 kts | 327° |
| 2026-05-08 20:42 | 51.89944 | -0.51149 | 19805 ft | 415 kts | 327° |
| 2026-05-08 20:43 | 51.92431 | -0.53508 | 19293 ft | 413 kts | 327° |
| 2026-05-08 20:43 | 51.94896 | -0.55871 | 18791 ft | 411 kts | 327° |
| 2026-05-08 20:43 | 51.97354 | -0.58250 | 18251 ft | 410 kts | 327° |
| 2026-05-08 20:43 | 51.99799 | -0.60633 | 17678 ft | 409 kts | 327° |
| 2026-05-08 20:44 | 52.02225 | -0.63010 | 17148 ft | 406 kts | 327° |
| 2026-05-08 20:44 | 52.04636 | -0.65377 | 16628 ft | 403 kts | 327° |
| 2026-05-08 20:44 | 52.07028 | -0.67731 | 16124 ft | 401 kts | 327° |
| 2026-05-08 20:44 | 52.09411 | -0.70077 | 15624 ft | 399 kts | 327° |
| 2026-05-08 20:45 | 52.11778 | -0.72411 | 15110 ft | 396 kts | 327° |
| 2026-05-08 20:45 | 52.13335 | -0.73948 | 14797 ft | 395 kts | 327° |
| 2026-05-08 20:45 | 52.16471 | -0.77046 | 14138 ft | 392 kts | 327° |
| 2026-05-08 20:45 | 52.18795 | -0.79345 | 13622 ft | 391 kts | 327° |
| 2026-05-08 20:46 | 52.21110 | -0.81638 | 13090 ft | 388 kts | 327° |
| 2026-05-08 20:46 | 52.23433 | -0.83858 | 12571 ft | 386 kts | 332° |
| 2026-05-08 20:46 | 52.25853 | -0.85637 | 12085 ft | 384 kts | 338° |
| 2026-05-08 20:46 | 52.28396 | -0.86951 | 11608 ft | 382 kts | 344° |
| 2026-05-08 20:47 | 52.30956 | -0.88052 | 11147 ft | 379 kts | 344° |
| 2026-05-08 20:47 | 52.33475 | -0.89135 | 10977 ft | 368 kts | 344° |
| 2026-05-08 20:47 | 52.35919 | -0.90198 | 10812 ft | 358 kts | 344° |
| 2026-05-08 20:47 | 52.38291 | -0.91238 | 10659 ft | 349 kts | 344° |
| 2026-05-08 20:48 | 52.40609 | -0.92262 | 10504 ft | 340 kts | 344° |
| 2026-05-08 20:48 | 52.42863 | -0.93263 | 10377 ft | 331 kts | 344° |
| 2026-05-08 20:48 | 52.45056 | -0.94238 | 10234 ft | 323 kts | 344° |
| 2026-05-08 20:48 | 52.47195 | -0.95191 | 10077 ft | 315 kts | 344° |
| 2026-05-08 20:49 | 52.49270 | -0.96119 | 9866 ft | 308 kts | 343° |
| 2026-05-08 20:49 | 52.51301 | -0.97087 | 9585 ft | 297 kts | 342° |
| 2026-05-08 20:49 | 52.53237 | -0.98033 | 9224 ft | 284 kts | 342° |
| 2026-05-08 20:49 | 52.55101 | -0.98943 | 8770 ft | 275 kts | 342° |
| 2026-05-08 20:50 | 52.56917 | -0.99828 | 8432 ft | 269 kts | 343° |
| 2026-05-08 20:50 | 52.58720 | -1.00704 | 8134 ft | 272 kts | 343° |
| 2026-05-08 20:50 | 52.60551 | -1.01593 | 7784 ft | 276 kts | 343° |
| 2026-05-08 20:50 | 52.62404 | -1.02489 | 7444 ft | 277 kts | 343° |
| 2026-05-08 20:51 | 52.64247 | -1.03334 | 7143 ft | 269 kts | 348° |
| 2026-05-08 20:51 | 52.66116 | -1.03513 | 6727 ft | 272 kts | 1° |
| 2026-05-08 20:51 | 52.68004 | -1.03461 | 6351 ft | 268 kts | 0° |
| 2026-05-08 20:51 | 52.69859 | -1.03463 | 5772 ft | 265 kts | 360° |
| 2026-05-08 20:52 | 52.71687 | -1.03485 | 5317 ft | 261 kts | 360° |
| 2026-05-08 20:52 | 52.73484 | -1.03466 | 4924 ft | 264 kts | 3° |
| 2026-05-08 20:52 | 52.75329 | -1.03211 | 4491 ft | 266 kts | 6° |
| 2026-05-08 20:52 | 52.77158 | -1.02912 | 4065 ft | 265 kts | 6° |
| 2026-05-08 20:53 | 52.78963 | -1.02615 | 3956 ft | 250 kts | 6° |
| 2026-05-08 20:53 | 52.80655 | -1.02355 | 3869 ft | 235 kts | 6° |
| 2026-05-08 20:53 | 52.82230 | -1.02486 | 3786 ft | 232 kts | 339° |
| 2026-05-08 20:53 | 52.83508 | -1.04044 | 3778 ft | 228 kts | 303° |
| 2026-05-08 20:54 | 52.84048 | -1.06416 | 3727 ft | 216 kts | 274° |
| 2026-05-08 20:54 | 52.84024 | -1.08841 | 3690 ft | 205 kts | 262° |
| 2026-05-08 20:54 | 52.83869 | -1.11116 | 3648 ft | 193 kts | 260° |
| 2026-05-08 20:54 | 52.83712 | -1.13291 | 3598 ft | 189 kts | 260° |
| 2026-05-08 20:55 | 52.83559 | -1.15448 | 3564 ft | 189 kts | 261° |
| 2026-05-08 20:55 | 52.83410 | -1.17587 | 3533 ft | 190 kts | 261° |
| 2026-05-08 20:55 | 52.83257 | -1.19761 | 3486 ft | 190 kts | 262° |
| 2026-05-08 20:55 | 52.83199 | -1.21946 | 3440 ft | 190 kts | 266° |
| 2026-05-08 20:56 | 52.83175 | -1.24137 | 3404 ft | 191 kts | 266° |
| 2026-05-08 20:56 | 52.83152 | -1.26334 | 3357 ft | 191 kts | 266° |
| 2026-05-08 20:56 | 52.83126 | -1.28533 | 3319 ft | 192 kts | 266° |
| 2026-05-08 20:56 | 52.83098 | -1.30734 | 3272 ft | 190 kts | 266° |
| 2026-05-08 20:57 | 52.83070 | -1.32861 | 3250 ft | 180 kts | 266° |
| 2026-05-08 20:57 | 52.83042 | -1.34877 | 3171 ft | 170 kts | 265° |
| 2026-05-08 20:57 | 52.83013 | -1.36821 | 3143 ft | 169 kts | 265° |
| 2026-05-08 20:57 | 52.82984 | -1.38746 | 3115 ft | 170 kts | 265° |
| 2026-05-08 20:58 | 52.82952 | -1.40703 | 3086 ft | 170 kts | 265° |
| 2026-05-08 20:58 | 52.82920 | -1.42663 | 3045 ft | 170 kts | 265° |
| 2026-05-08 20:58 | 52.82861 | -1.44604 | 2986 ft | 167 kts | 254° |
| 2026-05-08 20:58 | 52.82353 | -1.46285 | 2948 ft | 163 kts | 228° |
| 2026-05-08 20:59 | 52.81636 | -1.47765 | 2939 ft | 167 kts | 229° |
| 2026-05-08 20:59 | 52.80918 | -1.49283 | 2886 ft | 167 kts | 229° |
| 2026-05-08 20:59 | 52.80202 | -1.50769 | 2815 ft | 163 kts | 228° |
| 2026-05-08 20:59 | 52.79490 | -1.52227 | 2789 ft | 163 kts | 228° |
| 2026-05-08 21:00 | 52.78788 | -1.53658 | 2734 ft | 162 kts | 228° |
| 2026-05-08 21:00 | 52.78076 | -1.55102 | 2704 ft | 163 kts | 228° |
| 2026-05-08 21:00 | 52.77385 | -1.56596 | 2629 ft | 165 kts | 237° |
| 2026-05-08 21:00 | 52.77011 | -1.58358 | 2592 ft | 161 kts | 259° |
| 2026-05-08 21:01 | 52.77073 | -1.60183 | 2540 ft | 160 kts | 282° |
| 2026-05-08 21:01 | 52.77555 | -1.61840 | 2509 ft | 162 kts | 305° |
| 2026-05-08 21:01 | 52.78400 | -1.63092 | 2456 ft | 164 kts | 329° |
| 2026-05-08 21:01 | 52.79480 | -1.63692 | 2403 ft | 164 kts | 354° |
| 2026-05-08 21:02 | 52.80602 | -1.63516 | 2376 ft | 163 kts | 19° |
| 2026-05-08 21:02 | 52.81568 | -1.62633 | 2315 ft | 160 kts | 43° |
| 2026-05-08 21:02 | 52.82236 | -1.61193 | 2268 ft | 157 kts | 68° |
| 2026-05-08 21:02 | 52.82533 | -1.59484 | 2244 ft | 154 kts | 85° |
| 2026-05-08 21:03 | 52.82619 | -1.57712 | 2195 ft | 154 kts | 89° |
| 2026-05-08 21:03 | 52.82669 | -1.55939 | 2151 ft | 154 kts | 90° |
| 2026-05-08 21:03 | 52.82706 | -1.54170 | 2073 ft | 153 kts | 90° |
| 2026-05-08 21:03 | 52.82740 | -1.52431 | 2021 ft | 153 kts | 91° |
| 2026-05-08 21:04 | 52.82771 | -1.50673 | 1990 ft | 152 kts | 91° |
| 2026-05-08 21:04 | 52.82802 | -1.48922 | 2010 ft | 153 kts | 91° |
| 2026-05-08 21:04 | 52.82835 | -1.47130 | 1835 ft | 158 kts | 91° |
| 2026-05-08 21:04 | 52.82868 | -1.45336 | 1577 ft | 154 kts | 90° |
| 2026-05-08 21:05 | 52.82903 | -1.43570 | 1340 ft | 153 kts | 90° |
| 2026-05-08 21:05 | 52.82934 | -1.41833 | 1165 ft | 150 kts | 90° |
| 2026-05-08 21:05 | 52.82964 | -1.40110 | 969 ft | 150 kts | 89° |
| 2026-05-08 21:05 | 52.83002 | -1.38393 | 789 ft | 150 kts | 89° |
| 2026-05-08 21:06 | 52.83029 | -1.36655 | 599 ft | 151 kts | 88° |
| 2026-05-08 21:06 | 52.83064 | -1.34907 | 377 ft | 150 kts | 88° |
| 2026-05-08 21:06 | 52.83087 | -1.33269 | 313 ft | 129 kts | 84° |
| 2026-05-08 21:06 | 52.83114 | -1.32111 | 306 ft | 70 kts | 88° |
| 2026-05-08 21:07 | 52.83120 | -1.31594 | 306 ft | 36 kts | 89° |
| 2026-05-08 21:07 | 52.83093 | -1.31325 | 301 ft | 14 kts | 166° |
| 2026-05-08 21:07 | 52.83002 | -1.31317 | 298 ft | 0 kts | 180° |
| 2026-05-08 21:10 | 52.82998 | -1.31317 | 298 ft | 4 kts | 183° |
| 2026-05-08 21:10 | 52.82973 | -1.31344 | 303 ft | 5 kts | 227° |
| 2026-05-08 21:10 | 52.82961 | -1.31394 | 303 ft | 5 kts | 257° |
| 2026-05-08 21:11 | 52.82955 | -1.31491 | 302 ft | 12 kts | 266° |
| 2026-05-08 21:11 | 52.82719 | -1.35114 | 319 ft | 0 kts | 178° |
| 2026-05-08 21:11 | 52.82718 | -1.35114 | 319 ft | 0 kts | 178° |